Observation data for Persimmon Gap on 08/14/2017      Previous  Date       Current Mesonet Observations  Soil Data  Daily Summary Page  Observations in Plain Language
KPG1 140500Z 02002KT 24/21 A2995 RMK A01 T02420207  RH  081%=      5-min Rain = 0
KPG1 140501Z 02002KT 24/21 A2995 RMK A01 T02420205  RH  080%=      5-min Rain = 0
KPG1 140502Z 01002KT 24/21 A2995 RMK A01 T02420206  RH  081%=      5-min Rain = 0
KPG1 140503Z 01002KT 24/21 A2995 RMK A01 T02420207  RH  081%=      5-min Rain = 0
KPG1 140504Z 01002KT 24/21 A2995 RMK A01 T02410205  RH  080%=      5-min Rain = 0
KPG1 140505Z 35002KT 24/20 A2995 RMK A01 T02410202  RH  079%=      5-min Rain = 0
KPG1 140506Z 36001KT 24/20 A2995 RMK A01 T02410199  RH  077%=      5-min Rain = 0
KPG1 140507Z 35001KT 24/20 A2995 RMK A01 T02420196  RH  076%=      5-min Rain = 0
KPG1 140508Z 35001KT 24/20 A2995 RMK A01 T02430196  RH  075%=      5-min Rain = 0
KPG1 140509Z 01001KT 24/20 A2995 RMK A01 T02440196  RH  075%=      5-min Rain = 0
KPG1 140510Z 02001KT 24/20 A2995 RMK A01 T02440198  RH  075%=      5-min Rain = 0
KPG1 140511Z 02001KT 24/20 A2995 RMK A01 T02440200  RH  076%=      5-min Rain = 0
KPG1 140512Z 04001KT 24/20 A2995 RMK A01 T02440198  RH  076%=      5-min Rain = 0
KPG1 140513Z 05001KT 24/20 A2995 RMK A01 T02440195  RH  074%=      5-min Rain = 0
KPG1 140514Z 06001KT 24/20 A2995 RMK A01 T02440196  RH  075%=      5-min Rain = 0
KPG1 140515Z 05001KT 24/20 A2995 RMK A01 T02440199  RH  076%=      5-min Rain = 0
KPG1 140516Z 04001KT 24/20 A2995 RMK A01 T02440202  RH  077%=      5-min Rain = 0
KPG1 140517Z 04002KT 25/20 A2995 RMK A01 T02450201  RH  077%=      5-min Rain = 0
KPG1 140518Z 03002KT 24/20 A2994 RMK A01 T02440204  RH  078%=      5-min Rain = 0
KPG1 140519Z 04002KT 24/20 A2994 RMK A01 T02440203  RH  078%=      5-min Rain = 0
KPG1 140520Z 03003KT 24/20 A2994 RMK A01 T02430203  RH  078%=      5-min Rain = 0
KPG1 140521Z 04003KT 24/21 A2994 RMK A01 T02430205  RH  079%=      5-min Rain = 0
KPG1 140522Z 04003KT 24/21 A2994 RMK A01 T02430208  RH  081%=      5-min Rain = 0
KPG1 140523Z 05003KT 24/21 A2994 RMK A01 T02420209  RH  082%=      5-min Rain = 0
KPG1 140524Z 06003KT 24/21 A2994 RMK A01 T02420210  RH  082%=      5-min Rain = 0
KPG1 140525Z 06002KT 24/21 A2994 RMK A01 T02410208  RH  082%=      5-min Rain = 0
KPG1 140526Z 06002KT 24/20 A2994 RMK A01 T02400204  RH  080%=      5-min Rain = 0
KPG1 140527Z 03002KT 24/21 A2994 RMK A01 T02410205  RH  081%=      5-min Rain = 0
KPG1 140528Z 02002KT 24/21 A2994 RMK A01 T02410205  RH  081%=      5-min Rain = 0
KPG1 140529Z 01003KT 24/21 A2994 RMK A01 T02410207  RH  082%=      5-min Rain = 0
KPG1 140530Z 01002KT 24/21 A2994 RMK A01 T02410207  RH  081%=      5-min Rain = 0
KPG1 140531Z 01002KT 24/20 A2994 RMK A01 T02410200  RH  078%=      5-min Rain = 0
KPG1 140532Z 02003KT 24/20 A2994 RMK A01 T02420195  RH  075%=      5-min Rain = 0
KPG1 140533Z 02003KT 24/20 A2994 RMK A01 T02440195  RH  074%=      5-min Rain = 0
KPG1 140534Z 01003KT 25/20 A2994 RMK A01 T02450195  RH  074%=      5-min Rain = 0
KPG1 140535Z 01003KT 25/20 A2994 RMK A01 T02450195  RH  074%=      5-min Rain = 0
KPG1 140536Z 01003KT 25/20 A2994 RMK A01 T02460196  RH  074%=      5-min Rain = 0
KPG1 140537Z 36003KT 25/20 A2994 RMK A01 T02460197  RH  074%=      5-min Rain = 0
KPG1 140538Z 01003KT 25/20 A2994 RMK A01 T02460195  RH  073%=      5-min Rain = 0
KPG1 140539Z 00003KT 25/19 A2994 RMK A01 T02460192  RH  072%=      5-min Rain = 0
KPG1 140540Z 00003KT 25/20 A2994 RMK A01 T02470196  RH  073%=      5-min Rain = 0
KPG1 140541Z 36004KT 25/20 A2994 RMK A01 T02470198  RH  074%=      5-min Rain = 0
KPG1 140542Z 35004KT 25/20 A2994 RMK A01 T02470199  RH  075%=      5-min Rain = 0
KPG1 140543Z 35004KT 25/19 A2994 RMK A01 T02460192  RH  072%=      5-min Rain = 0
KPG1 140544Z 35004KT 25/19 A2994 RMK A01 T02470191  RH  071%=      5-min Rain = 0
KPG1 140545Z 35004KT 25/19 A2994 RMK A01 T02480192  RH  071%=      5-min Rain = 0
KPG1 140546Z 35004KT 25/19 A2994 RMK A01 T02480189  RH  069%=      5-min Rain = 0
KPG1 140547Z 00003KT 25/19 A2994 RMK A01 T02490189  RH  069%=      5-min Rain = 0
KPG1 140548Z 01003KT 25/19 A2994 RMK A01 T02500188  RH  069%=      5-min Rain = 0
KPG1 140549Z 02002KT 25/19 A2994 RMK A01 T02500192  RH  070%=      5-min Rain = 0
KPG1 140550Z 05003KT 25/20 A2994 RMK A01 T02500201  RH  074%=      5-min Rain = 0
KPG1 140551Z 05003KT 25/20 A2994 RMK A01 T02470203  RH  076%=      5-min Rain = 0
KPG1 140552Z 05004KT 25/20 A2994 RMK A01 T02450203  RH  077%=      5-min Rain = 0
KPG1 140553Z 05004KT 25/20 A2994 RMK A01 T02450202  RH  077%=      5-min Rain = 0
KPG1 140554Z 06003KT 24/20 A2994 RMK A01 T02440200  RH  076%=      5-min Rain = 0
KPG1 140555Z 06003KT 25/20 A2994 RMK A01 T02450198  RH  075%=      5-min Rain = 0
KPG1 140556Z 05003KT 25/20 A2994 RMK A01 T02450199  RH  075%=      5-min Rain = 0
KPG1 140557Z 06002KT 25/20 A2994 RMK A01 T02450199  RH  075%=      5-min Rain = 0
KPG1 140558Z 02001KT 25/20 A2994 RMK A01 T02450198  RH  075%=      5-min Rain = 0
KPG1 140559Z 36001KT 25/20 A2994 RMK A01 T02450199  RH  075%=      5-min Rain = 0
KPG1 140600Z 35002KT 25/20 A2994 RMK A01 T02450201  RH  076%=      5-min Rain = 0
KPG1 140601Z 01003KT 25/20 A2994 RMK A01 T02450199  RH  075%=      5-min Rain = 0
KPG1 140602Z 03003KT 25/20 A2994 RMK A01 T02460200  RH  076%=      5-min Rain = 0
KPG1 140603Z 03004KT 25/20 A2994 RMK A01 T02460200  RH  076%=      5-min Rain = 0
KPG1 140604Z 03003KT 25/20 A2994 RMK A01 T02460200  RH  076%=      5-min Rain = 0
KPG1 140605Z 04003KT 25/20 A2994 RMK A01 T02460200  RH  076%=      5-min Rain = 0
KPG1 140606Z 05003KT 25/20 A2994 RMK A01 T02460202  RH  076%=      5-min Rain = 0
KPG1 140607Z 05003KT 25/20 A2994 RMK A01 T02460202  RH  076%=      5-min Rain = 0
KPG1 140608Z 05003KT 25/20 A2994 RMK A01 T02460201  RH  076%=      5-min Rain = 0
KPG1 140609Z 05003KT 25/20 A2994 RMK A01 T02450201  RH  076%=      5-min Rain = 0
KPG1 140610Z 04003KT 25/20 A2994 RMK A01 T02450200  RH  076%=      5-min Rain = 0
KPG1 140611Z 04004KT 25/20 A2994 RMK A01 T02450200  RH  076%=      5-min Rain = 0
KPG1 140612Z 03003KT 25/20 A2994 RMK A01 T02450199  RH  076%=      5-min Rain = 0
KPG1 140613Z 03003KT 25/20 A2994 RMK A01 T02460199  RH  075%=      5-min Rain = 0
KPG1 140614Z 02003KT 25/20 A2994 RMK A01 T02460200  RH  076%=      5-min Rain = 0
KPG1 140615Z 01002KT 25/20 A2994 RMK A01 T02460199  RH  075%=      5-min Rain = 0
KPG1 140616Z 02002KT 25/20 A2994 RMK A01 T02460200  RH  076%=      5-min Rain = 0
KPG1 140617Z 35002KT 25/20 A2995 RMK A01 T02460201  RH  076%=      5-min Rain = 0
KPG1 140618Z 26003KT 25/20 A2995 RMK A01 T02460204  RH  078%=      5-min Rain = 0
KPG1 140619Z 27003KT 25/21 A2995 RMK A01 T02450206  RH  079%=      5-min Rain = 0
KPG1 140620Z 27003KT 24/21 A2995 RMK A01 T02430205  RH  080%=      5-min Rain = 0
KPG1 140621Z 26003KT 24/21 A2995 RMK A01 T02420205  RH  080%=      5-min Rain = 0
KPG1 140622Z 26004KT 24/21 A2995 RMK A01 T02410205  RH  081%=      5-min Rain = 0
KPG1 140623Z 26003KT 24/20 A2995 RMK A01 T02400204  RH  081%=      5-min Rain = 0
KPG1 140624Z 26003KT 24/21 A2995 RMK A01 T02400206  RH  082%=      5-min Rain = 0
KPG1 140625Z 25003KT 24/21 A2995 RMK A01 T02390206  RH  082%=      5-min Rain = 0
KPG1 140626Z 25003KT 24/21 A2995 RMK A01 T02390205  RH  081%=      5-min Rain = 0
KPG1 140627Z 24003KT 24/21 A2995 RMK A01 T02390205  RH  082%=      5-min Rain = 0
KPG1 140628Z 24002KT 24/20 A2995 RMK A01 T02390204  RH  081%=      5-min Rain = 0
KPG1 140629Z 24002KT 24/20 A2995 RMK A01 T02390203  RH  080%=      5-min Rain = 0
KPG1 140630Z 22002KT 24/21 A2995 RMK A01 T02390206  RH  082%=      5-min Rain = 0
KPG1 140631Z 19002KT 24/21 A2996 RMK A01 T02390208  RH  083%=      5-min Rain = 0
KPG1 140632Z 20003KT 24/21 A2996 RMK A01 T02390209  RH  083%=      5-min Rain = 0
KPG1 140633Z 20002KT 24/21 A2996 RMK A01 T02380209  RH  084%=      5-min Rain = 0
KPG1 140634Z 20002KT 24/21 A2996 RMK A01 T02380209  RH  084%=      5-min Rain = 0
KPG1 140635Z 18001KT 24/21 A2996 RMK A01 T02380207  RH  083%=      5-min Rain = 0
KPG1 140636Z 00000KT 24/21 A2996 RMK A01 T02370207  RH  083%=      5-min Rain = 0
KPG1 140637Z 21001KT 24/21 A2996 RMK A01 T02380206  RH  083%=      5-min Rain = 0
KPG1 140638Z 18002KT 24/21 A2996 RMK A01 T02380206  RH  083%=      5-min Rain = 0
KPG1 140639Z 19002KT 24/21 A2996 RMK A01 T02380206  RH  083%=      5-min Rain = 0
KPG1 140640Z 19003KT 24/21 A2996 RMK A01 T02380208  RH  083%=      5-min Rain = 0
KPG1 140641Z 20003KT 24/21 A2996 RMK A01 T02380209  RH  084%=      5-min Rain = 0
KPG1 140642Z 20003KT 24/21 A2996 RMK A01 T02380209  RH  084%=      5-min Rain = 0
KPG1 140643Z 20003KT 24/21 A2996 RMK A01 T02380209  RH  083%=      5-min Rain = 0
KPG1 140644Z 20003KT 24/21 A2996 RMK A01 T02380209  RH  084%=      5-min Rain = 0
KPG1 140645Z 19003KT 24/21 A2996 RMK A01 T02380209  RH  084%=      5-min Rain = 0
KPG1 140646Z 20003KT 24/21 A2996 RMK A01 T02380209  RH  084%=      5-min Rain = 0
KPG1 140647Z 21002KT 24/21 A2996 RMK A01 T02380209  RH  084%=      5-min Rain = 0
KPG1 140648Z 18003KT 24/21 A2996 RMK A01 T02370209  RH  084%=      5-min Rain = 0
KPG1 140649Z 17003KT 24/21 A2996 RMK A01 T02380209  RH  084%=      5-min Rain = 0
KPG1 140650Z 18003KT 24/21 A2996 RMK A01 T02380210  RH  084%=      5-min Rain = 0
KPG1 140651Z 18003KT 24/21 A2996 RMK A01 T02380210  RH  084%=      5-min Rain = 0
KPG1 140652Z 19004KT 24/21 A2996 RMK A01 T02370210  RH  085%=      5-min Rain = 0
KPG1 140653Z 19004KT 24/21 A2996 RMK A01 T02370210  RH  085%=      5-min Rain = 0
KPG1 140654Z 18004KT 24/21 A2995 RMK A01 T02370210  RH  085%=      5-min Rain = 0
KPG1 140655Z 18004KT 24/21 A2995 RMK A01 T02370208  RH  084%=      5-min Rain = 0
KPG1 140656Z 18004KT 24/21 A2996 RMK A01 T02370208  RH  084%=      5-min Rain = 0
KPG1 140657Z 16004KT 24/21 A2996 RMK A01 T02370207  RH  083%=      5-min Rain = 0
KPG1 140658Z 16004KT 24/21 A2995 RMK A01 T02370207  RH  083%=      5-min Rain = 0
KPG1 140659Z 16004KT 24/21 A2996 RMK A01 T02370207  RH  083%=      5-min Rain = 0
KPG1 140700Z 17004KT 24/21 A2996 RMK A01 T02370207  RH  083%=      5-min Rain = 0
KPG1 140701Z 17004KT 24/21 A2996 RMK A01 T02370207  RH  083%=      5-min Rain = 0
KPG1 140702Z 17003KT 24/21 A2996 RMK A01 T02370206  RH  083%=      5-min Rain = 0
KPG1 140703Z 18003KT 24/21 A2996 RMK A01 T02370207  RH  083%=      5-min Rain = 0
KPG1 140704Z 19003KT 24/21 A2996 RMK A01 T02380208  RH  084%=      5-min Rain = 0
KPG1 140705Z 19003KT 24/21 A2996 RMK A01 T02370209  RH  084%=      5-min Rain = 0
KPG1 140706Z 19003KT 24/21 A2996 RMK A01 T02370209  RH  084%=      5-min Rain = 0
KPG1 140707Z 19002KT 24/21 A2996 RMK A01 T02370207  RH  083%=      5-min Rain = 0
KPG1 140708Z 18002KT 24/21 A2996 RMK A01 T02370205  RH  082%=      5-min Rain = 0
KPG1 140709Z 17001KT 24/21 A2996 RMK A01 T02380207  RH  083%=      5-min Rain = 0
KPG1 140710Z 23000KT 24/21 A2996 RMK A01 T02380209  RH  084%=      5-min Rain = 0
KPG1 140711Z 23000KT 24/21 A2996 RMK A01 T02380208  RH  083%=      5-min Rain = 0
KPG1 140712Z 22001KT 24/21 A2996 RMK A01 T02380209  RH  084%=      5-min Rain = 0
KPG1 140713Z 21001KT 24/21 A2996 RMK A01 T02380209  RH  084%=      5-min Rain = 0
KPG1 140714Z 20001KT 24/21 A2996 RMK A01 T02370210  RH  085%=      5-min Rain = 0
KPG1 140715Z 19002KT 24/21 A2996 RMK A01 T02380211  RH  085%=      5-min Rain = 0
KPG1 140716Z 18003KT 24/21 A2996 RMK A01 T02370207  RH  083%=      5-min Rain = 0
KPG1 140717Z 18003KT 24/21 A2996 RMK A01 T02370207  RH  083%=      5-min Rain = 0
KPG1 140718Z 18003KT 24/21 A2996 RMK A01 T02370206  RH  083%=      5-min Rain = 0
KPG1 140719Z 18003KT 24/21 A2996 RMK A01 T02370206  RH  083%=      5-min Rain = 0
KPG1 140720Z 17004KT 24/21 A2996 RMK A01 T02370207  RH  083%=      5-min Rain = 0
KPG1 140721Z 16003KT 24/21 A2996 RMK A01 T02370207  RH  083%=      5-min Rain = 0
KPG1 140722Z 16003KT 24/21 A2996 RMK A01 T02370206  RH  083%=      5-min Rain = 0
KPG1 140723Z 15004KT 24/21 A2996 RMK A01 T02370205  RH  082%=      5-min Rain = 0
KPG1 140724Z 15003KT 24/21 A2996 RMK A01 T02370205  RH  082%=      5-min Rain = 0
KPG1 140725Z 14003KT 24/21 A2996 RMK A01 T02370206  RH  083%=      5-min Rain = 0
KPG1 140726Z 13003KT 24/21 A2996 RMK A01 T02370205  RH  082%=      5-min Rain = 0
KPG1 140727Z 13003KT 24/20 A2996 RMK A01 T02370204  RH  081%=      5-min Rain = 0
KPG1 140728Z 13003KT 24/20 A2996 RMK A01 T02380202  RH  080%=      5-min Rain = 0
KPG1 140729Z 14003KT 24/20 A2996 RMK A01 T02380203  RH  080%=      5-min Rain = 0
KPG1 140730Z 14003KT 24/20 A2995 RMK A01 T02390202  RH  080%=      5-min Rain = 0
KPG1 140731Z 15003KT 24/20 A2995 RMK A01 T02390202  RH  080%=      5-min Rain = 0
KPG1 140732Z 15003KT 24/20 A2995 RMK A01 T02390202  RH  080%=      5-min Rain = 0
KPG1 140733Z 17002KT 24/20 A2995 RMK A01 T02390200  RH  079%=      5-min Rain = 0
KPG1 140734Z 19002KT 24/20 A2996 RMK A01 T02390202  RH  079%=      5-min Rain = 0
KPG1 140735Z 19001KT 24/20 A2996 RMK A01 T02390203  RH  080%=      5-min Rain = 0
KPG1 140736Z 20001KT 24/20 A2996 RMK A01 T02390203  RH  080%=      5-min Rain = 0
KPG1 140737Z 22001KT 24/20 A2996 RMK A01 T02390203  RH  080%=      5-min Rain = 0
KPG1 140738Z 17001KT 24/20 A2996 RMK A01 T02390203  RH  080%=      5-min Rain = 0
KPG1 140739Z 17002KT 24/20 A2996 RMK A01 T02380199  RH  079%=      5-min Rain = 0
KPG1 140740Z 16002KT 24/20 A2996 RMK A01 T02380199  RH  079%=      5-min Rain = 0
KPG1 140741Z 16003KT 24/20 A2996 RMK A01 T02390201  RH  079%=      5-min Rain = 0
KPG1 140742Z 15002KT 24/20 A2996 RMK A01 T02390198  RH  078%=      5-min Rain = 0
KPG1 140743Z 10002KT 24/19 A2996 RMK A01 T02400194  RH  076%=      5-min Rain = 0
KPG1 140744Z 13001KT 24/19 A2996 RMK A01 T02410194  RH  075%=      5-min Rain = 0
KPG1 140745Z 21002KT 24/20 A2996 RMK A01 T02420200  RH  077%=      5-min Rain = 0
KPG1 140746Z 17001KT 24/20 A2995 RMK A01 T02410200  RH  078%=      5-min Rain = 0
KPG1 140747Z 17000KT 24/20 A2995 RMK A01 T02410201  RH  078%=      5-min Rain = 0
KPG1 140748Z 26000KT 24/20 A2995 RMK A01 T02400200  RH  078%=      5-min Rain = 0
KPG1 140749Z 19000KT 24/20 A2995 RMK A01 T02400198  RH  077%=      5-min Rain = 0
KPG1 140750Z 27001KT 24/19 A2995 RMK A01 T02400192  RH  074%=      5-min Rain = 0
KPG1 140751Z 32001KT 24/19 A2995 RMK A01 T02400188  RH  073%=      5-min Rain = 0
KPG1 140752Z 30001KT 24/20 A2995 RMK A01 T02420195  RH  075%=      5-min Rain = 0
KPG1 140753Z 30000KT 24/20 A2995 RMK A01 T02420199  RH  077%=      5-min Rain = 0
KPG1 140754Z 00000KT 24/20 A2995 RMK A01 T02420197  RH  076%=      5-min Rain = 0
KPG1 140755Z 00000KT 24/20 A2995 RMK A01 T02420200  RH  077%=      5-min Rain = 0
KPG1 140756Z 12001KT 24/20 A2995 RMK A01 T02410195  RH  075%=      5-min Rain = 0
KPG1 140757Z 13001KT 24/19 A2995 RMK A01 T02410192  RH  074%=      5-min Rain = 0
KPG1 140758Z 16002KT 24/19 A2995 RMK A01 T02420189  RH  072%=      5-min Rain = 0
KPG1 140759Z 19002KT 24/19 A2995 RMK A01 T02430192  RH  073%=      5-min Rain = 0
KPG1 140800Z 16001KT 24/19 A2995 RMK A01 T02430192  RH  073%=      5-min Rain = 0
KPG1 140801Z 17002KT 24/20 A2995 RMK A01 T02440199  RH  076%=      5-min Rain = 0
KPG1 140802Z 18002KT 24/20 A2995 RMK A01 T02430202  RH  078%=      5-min Rain = 0
KPG1 140803Z 18002KT 24/20 A2995 RMK A01 T02410200  RH  078%=      5-min Rain = 0
KPG1 140804Z 14002KT 24/20 A2995 RMK A01 T02390195  RH  076%=      5-min Rain = 0
KPG1 140805Z 15002KT 24/19 A2995 RMK A01 T02390193  RH  075%=      5-min Rain = 0
KPG1 140806Z 16001KT 24/20 A2995 RMK A01 T02400196  RH  076%=      5-min Rain = 0
KPG1 140807Z 00000KT 24/20 A2995 RMK A01 T02400199  RH  078%=      5-min Rain = 0
KPG1 140808Z 18001KT 24/20 A2995 RMK A01 T02390199  RH  078%=      5-min Rain = 0
KPG1 140809Z 18001KT 24/20 A2995 RMK A01 T02390196  RH  077%=      5-min Rain = 0
KPG1 140810Z 18001KT 24/19 A2994 RMK A01 T02390194  RH  076%=      5-min Rain = 0
KPG1 140811Z 14001KT 24/19 A2994 RMK A01 T02390194  RH  076%=      5-min Rain = 0
KPG1 140812Z 13001KT 24/19 A2994 RMK A01 T02390193  RH  076%=      5-min Rain = 0
KPG1 140813Z 14002KT 24/19 A2994 RMK A01 T02390191  RH  074%=      5-min Rain = 0
KPG1 140814Z 14002KT 24/19 A2994 RMK A01 T02400189  RH  073%=      5-min Rain = 0
KPG1 140815Z 12003KT 24/19 A2994 RMK A01 T02410188  RH  072%=      5-min Rain = 0
KPG1 140816Z 15003KT 24/19 A2994 RMK A01 T02420186  RH  071%=      5-min Rain = 0
KPG1 140817Z 18001KT 24/19 A2994 RMK A01 T02430187  RH  071%=      5-min Rain = 0
KPG1 140818Z 20001KT 24/19 A2994 RMK A01 T02430192  RH  073%=      5-min Rain = 0
KPG1 140819Z 18001KT 24/19 A2994 RMK A01 T02420193  RH  074%=      5-min Rain = 0
KPG1 140820Z 17002KT 24/19 A2994 RMK A01 T02410189  RH  073%=      5-min Rain = 0
KPG1 140821Z 17002KT 24/19 A2994 RMK A01 T02410188  RH  072%=      5-min Rain = 0
KPG1 140822Z 18003KT 24/19 A2994 RMK A01 T02410189  RH  072%=      5-min Rain = 0
KPG1 140823Z 17003KT 24/19 A2994 RMK A01 T02410188  RH  072%=      5-min Rain = 0
KPG1 140824Z 17004KT 24/19 A2994 RMK A01 T02410186  RH  071%=      5-min Rain = 0
KPG1 140825Z 17004KT 24/19 A2994 RMK A01 T02410187  RH  072%=      5-min Rain = 0
KPG1 140826Z 16005KT 24/19 A2994 RMK A01 T02410188  RH  072%=      5-min Rain = 0
KPG1 140827Z 16004KT 24/19 A2994 RMK A01 T02400188  RH  072%=      5-min Rain = 0
KPG1 140828Z 15003KT 24/18 A2994 RMK A01 T02400184  RH  071%=      5-min Rain = 0
KPG1 140829Z 15002KT 24/18 A2994 RMK A01 T02410180  RH  068%=      5-min Rain = 0
KPG1 140830Z 14004KT 24/18 A2994 RMK A01 T02440180  RH  067%=      5-min Rain = 0
KPG1 140831Z 14005KT 25/18 A2994 RMK A01 T02450183  RH  068%=      5-min Rain = 0
KPG1 140832Z 15004KT 25/18 A2994 RMK A01 T02450184  RH  069%=      5-min Rain = 0
KPG1 140833Z 16003KT 25/19 A2994 RMK A01 T02450185  RH  069%=      5-min Rain = 0
KPG1 140834Z 17003KT 24/19 A2994 RMK A01 T02440185  RH  070%=      5-min Rain = 0
KPG1 140835Z 17003KT 24/19 A2994 RMK A01 T02440186  RH  070%=      5-min Rain = 0
KPG1 140836Z 15004KT 24/18 A2994 RMK A01 T02430183  RH  069%=      5-min Rain = 0
KPG1 140837Z 15004KT 24/18 A2994 RMK A01 T02430183  RH  069%=      5-min Rain = 0
KPG1 140838Z 16003KT 24/18 A2994 RMK A01 T02430183  RH  069%=      5-min Rain = 0
KPG1 140839Z 16004KT 24/18 A2993 RMK A01 T02430183  RH  069%=      5-min Rain = 0
KPG1 140840Z 17004KT 24/18 A2993 RMK A01 T02430183  RH  069%=      5-min Rain = 0
KPG1 140841Z 16005KT 24/19 A2993 RMK A01 T02430185  RH  070%=      5-min Rain = 0
KPG1 140842Z 16006KT 24/19 A2993 RMK A01 T02430186  RH  071%=      5-min Rain = 0
KPG1 140843Z 16007KT 24/19 A2993 RMK A01 T02420187  RH  071%=      5-min Rain = 0
KPG1 140844Z 17007KT 24/19 A2993 RMK A01 T02410186  RH  071%=      5-min Rain = 0
KPG1 140845Z 18007KT 24/19 A2993 RMK A01 T02410185  RH  071%=      5-min Rain = 0
KPG1 140846Z 18007KT 24/19 A2993 RMK A01 T02410186  RH  071%=      5-min Rain = 0
KPG1 140847Z 18007KT 24/19 A2993 RMK A01 T02410185  RH  071%=      5-min Rain = 0
KPG1 140848Z 18006KT 24/18 A2993 RMK A01 T02410184  RH  070%=      5-min Rain = 0
KPG1 140849Z 18006KT 24/18 A2993 RMK A01 T02410183  RH  070%=      5-min Rain = 0
KPG1 140850Z 18006KT 24/19 A2993 RMK A01 T02420188  RH  072%=      5-min Rain = 0
KPG1 140851Z 18005KT 24/19 A2993 RMK A01 T02410188  RH  072%=      5-min Rain = 0
KPG1 140852Z 18005KT 24/19 A2993 RMK A01 T02400189  RH  073%=      5-min Rain = 0
KPG1 140853Z 19006KT 24/19 A2993 RMK A01 T02390189  RH  073%=      5-min Rain = 0
KPG1 140854Z 18006KT 24/19 A2993 RMK A01 T02380188  RH  074%=      5-min Rain = 0
KPG1 140855Z 19006KT 24/19 A2993 RMK A01 T02380187  RH  073%=      5-min Rain = 0
KPG1 140856Z 18005KT 24/19 A2993 RMK A01 T02380188  RH  073%=      5-min Rain = 0
KPG1 140857Z 19004KT 24/19 A2993 RMK A01 T02380187  RH  073%=      5-min Rain = 0
KPG1 140858Z 21004KT 24/19 A2993 RMK A01 T02380185  RH  072%=      5-min Rain = 0
KPG1 140859Z 21004KT 24/18 A2993 RMK A01 T02380182  RH  071%=      5-min Rain = 0
KPG1 140900Z 20003KT 24/18 A2993 RMK A01 T02380184  RH  071%=      5-min Rain = 0
KPG1 140901Z 19002KT 24/18 A2993 RMK A01 T02380184  RH  071%=      5-min Rain = 0
KPG1 140902Z 22001KT 24/19 A2993 RMK A01 T02380185  RH  072%=      5-min Rain = 0
KPG1 140903Z 19001KT 24/19 A2993 RMK A01 T02380185  RH  072%=      5-min Rain = 0
KPG1 140904Z 23001KT 24/19 A2993 RMK A01 T02370185  RH  073%=      5-min Rain = 0
KPG1 140905Z 22002KT 24/19 A2993 RMK A01 T02360185  RH  073%=      5-min Rain = 0
KPG1 140906Z 21001KT 24/19 A2993 RMK A01 T02350185  RH  073%=      5-min Rain = 0
KPG1 140907Z 23001KT 24/18 A2993 RMK A01 T02350182  RH  072%=      5-min Rain = 0
KPG1 140908Z 24002KT 24/18 A2993 RMK A01 T02350181  RH  072%=      5-min Rain = 0
KPG1 140909Z 21001KT 24/18 A2993 RMK A01 T02350181  RH  071%=      5-min Rain = 0
KPG1 140910Z 26001KT 24/18 A2993 RMK A01 T02360180  RH  071%=      5-min Rain = 0
KPG1 140911Z 25001KT 24/18 A2993 RMK A01 T02360180  RH  071%=      5-min Rain = 0
KPG1 140912Z 27001KT 24/18 A2993 RMK A01 T02360181  RH  071%=      5-min Rain = 0
KPG1 140913Z 15000KT 24/18 A2993 RMK A01 T02360181  RH  071%=      5-min Rain = 0
KPG1 140914Z 20001KT 24/18 A2993 RMK A01 T02360182  RH  072%=      5-min Rain = 0
KPG1 140915Z 24001KT 24/18 A2993 RMK A01 T02360183  RH  072%=      5-min Rain = 0
KPG1 140916Z 21002KT 24/18 A2993 RMK A01 T02360183  RH  072%=      5-min Rain = 0
KPG1 140917Z 20001KT 24/18 A2993 RMK A01 T02350183  RH  072%=      5-min Rain = 0
KPG1 140918Z 18002KT 24/18 A2993 RMK A01 T02350183  RH  073%=      5-min Rain = 0
KPG1 140919Z 16001KT 23/18 A2993 RMK A01 T02340183  RH  073%=      5-min Rain = 0
KPG1 140920Z 15002KT 23/18 A2993 RMK A01 T02340183  RH  073%=      5-min Rain = 0
KPG1 140921Z 17001KT 23/18 A2993 RMK A01 T02340183  RH  073%=      5-min Rain = 0
KPG1 140922Z 16001KT 23/19 A2993 RMK A01 T02330185  RH  074%=      5-min Rain = 0
KPG1 140923Z 16001KT 23/18 A2993 RMK A01 T02330184  RH  074%=      5-min Rain = 0
KPG1 140924Z 15002KT 23/18 A2993 RMK A01 T02330183  RH  074%=      5-min Rain = 0
KPG1 140925Z 13002KT 23/18 A2993 RMK A01 T02330182  RH  073%=      5-min Rain = 0
KPG1 140926Z 15002KT 23/18 A2993 RMK A01 T02330182  RH  073%=      5-min Rain = 0
KPG1 140927Z 16002KT 23/18 A2993 RMK A01 T02340183  RH  073%=      5-min Rain = 0
KPG1 140928Z 16002KT 23/18 A2993 RMK A01 T02340184  RH  073%=      5-min Rain = 0
KPG1 140929Z 15002KT 23/18 A2993 RMK A01 T02340184  RH  074%=      5-min Rain = 0
KPG1 140930Z 19001KT 23/19 A2993 RMK A01 T02340186  RH  074%=      5-min Rain = 0
KPG1 140931Z 21000KT 23/19 A2993 RMK A01 T02340186  RH  075%=      5-min Rain = 0
KPG1 140932Z 11000KT 23/19 A2993 RMK A01 T02330186  RH  074%=      5-min Rain = 0
KPG1 140933Z 10001KT 23/18 A2993 RMK A01 T02330184  RH  074%=      5-min Rain = 0
KPG1 140934Z 14000KT 23/18 A2993 RMK A01 T02330183  RH  074%=      5-min Rain = 0
KPG1 140935Z 16001KT 23/18 A2993 RMK A01 T02330183  RH  074%=      5-min Rain = 0
KPG1 140936Z 14001KT 23/18 A2993 RMK A01 T02330182  RH  073%=      5-min Rain = 0
KPG1 140937Z 11001KT 23/18 A2993 RMK A01 T02330182  RH  073%=      5-min Rain = 0
KPG1 140938Z 13002KT 23/18 A2993 RMK A01 T02340184  RH  074%=      5-min Rain = 0
KPG1 140939Z 12001KT 23/18 A2993 RMK A01 T02340183  RH  073%=      5-min Rain = 0
KPG1 140940Z 12001KT 23/18 A2993 RMK A01 T02340181  RH  072%=      5-min Rain = 0
KPG1 140941Z 13001KT 23/18 A2993 RMK A01 T02340181  RH  072%=      5-min Rain = 0
KPG1 140942Z 11000KT 24/18 A2993 RMK A01 T02350182  RH  072%=      5-min Rain = 0
KPG1 140943Z 00000KT 24/18 A2993 RMK A01 T02350182  RH  072%=      5-min Rain = 0
KPG1 140944Z 00000KT 24/18 A2993 RMK A01 T02350183  RH  073%=      5-min Rain = 0
KPG1 140945Z 27001KT 24/18 A2993 RMK A01 T02350182  RH  072%=      5-min Rain = 0
KPG1 140946Z 25001KT 24/18 A2993 RMK A01 T02350181  RH  072%=      5-min Rain = 0
KPG1 140947Z 19001KT 24/18 A2993 RMK A01 T02350183  RH  072%=      5-min Rain = 0
KPG1 140948Z 18001KT 24/18 A2993 RMK A01 T02350182  RH  072%=      5-min Rain = 0
KPG1 140949Z 25001KT 24/18 A2993 RMK A01 T02360184  RH  072%=      5-min Rain = 0
KPG1 140950Z 24003KT 24/18 A2993 RMK A01 T02360182  RH  072%=      5-min Rain = 0
KPG1 140951Z 26003KT 24/18 A2993 RMK A01 T02360182  RH  072%=      5-min Rain = 0
KPG1 140952Z 24002KT 24/18 A2993 RMK A01 T02370182  RH  071%=      5-min Rain = 0
KPG1 140953Z 25002KT 24/18 A2993 RMK A01 T02370184  RH  072%=      5-min Rain = 0
KPG1 140954Z 26003KT 24/18 A2993 RMK A01 T02370183  RH  072%=      5-min Rain = 0
KPG1 140955Z 25003KT 24/18 A2993 RMK A01 T02370183  RH  072%=      5-min Rain = 0
KPG1 140956Z 26002KT 24/18 A2993 RMK A01 T02370183  RH  072%=      5-min Rain = 0
KPG1 140957Z 27003KT 24/18 A2993 RMK A01 T02370183  RH  071%=      5-min Rain = 0
KPG1 140958Z 27003KT 24/18 A2993 RMK A01 T02370182  RH  071%=      5-min Rain = 0
KPG1 140959Z 27003KT 24/18 A2993 RMK A01 T02380183  RH  071%=      5-min Rain = 0
KPG1 141000Z 28003KT 24/18 A2993 RMK A01 T02380182  RH  071%=      5-min Rain = 0
KPG1 141001Z 30002KT 24/18 A2993 RMK A01 T02380182  RH  070%=      5-min Rain = 0
KPG1 141002Z 29003KT 24/18 A2993 RMK A01 T02390182  RH  071%=      5-min Rain = 0
KPG1 141003Z 31003KT 24/18 A2993 RMK A01 T02390182  RH  070%=      5-min Rain = 0
KPG1 141004Z 31003KT 24/18 A2993 RMK A01 T02390182  RH  070%=      5-min Rain = 0
KPG1 141005Z 32004KT 24/18 A2993 RMK A01 T02400180  RH  069%=      5-min Rain = 0
KPG1 141006Z 31005KT 24/18 A2993 RMK A01 T02410181  RH  069%=      5-min Rain = 0
KPG1 141007Z 31006KT 24/18 A2993 RMK A01 T02420180  RH  069%=      5-min Rain = 0
KPG1 141008Z 31006KT 24/18 A2993 RMK A01 T02430180  RH  068%=      5-min Rain = 0
KPG1 141009Z 31007KT 24/18 A2993 RMK A01 T02440180  RH  067%=      5-min Rain = 0
KPG1 141010Z 31006KT 24/18 A2993 RMK A01 T02440179  RH  067%=      5-min Rain = 0
KPG1 141011Z 31005KT 25/18 A2993 RMK A01 T02450179  RH  067%=      5-min Rain = 0
KPG1 141012Z 31006KT 25/18 A2993 RMK A01 T02450178  RH  066%=      5-min Rain = 0
KPG1 141013Z 31006KT 25/18 A2993 RMK A01 T02460177  RH  066%=      5-min Rain = 0
KPG1 141014Z 31006KT 25/18 A2992 RMK A01 T02470178  RH  066%=      5-min Rain = 0
KPG1 141015Z 31006KT 25/18 A2992 RMK A01 T02470178  RH  066%=      5-min Rain = 0
KPG1 141016Z 31007KT 25/18 A2992 RMK A01 T02470177  RH  065%=      5-min Rain = 0
KPG1 141017Z 31008KT 25/18 A2992 RMK A01 T02480177  RH  065%=      5-min Rain = 0
KPG1 141018Z 30009KT 25/18 A2992 RMK A01 T02480175  RH  064%=      5-min Rain = 0
KPG1 141019Z 30008KT 25/17 A2992 RMK A01 T02500174  RH  063%=      5-min Rain = 0
KPG1 141020Z 29007KT 25/17 A2992 RMK A01 T02510174  RH  062%=      5-min Rain = 0
KPG1 141021Z 29008KT 25/17 A2992 RMK A01 T02520174  RH  062%=      5-min Rain = 0
KPG1 141022Z 28008KT 25/17 A2992 RMK A01 T02520174  RH  062%=      5-min Rain = 0
KPG1 141023Z 29007KT 25/17 A2992 RMK A01 T02520172  RH  061%=      5-min Rain = 0
KPG1 141024Z 28007KT 25/17 A2992 RMK A01 T02530173  RH  061%=      5-min Rain = 0
KPG1 141025Z 29007KT 25/17 A2992 RMK A01 T02530173  RH  061%=      5-min Rain = 0
KPG1 141026Z 29007KT 25/17 A2992 RMK A01 T02530172  RH  061%=      5-min Rain = 0
KPG1 141027Z 28008KT 25/17 A2992 RMK A01 T02540172  RH  061%=      5-min Rain = 0
KPG1 141028Z 28006KT 25/17 A2992 RMK A01 T02540174  RH  061%=      5-min Rain = 0
KPG1 141029Z 29007KT 25/17 A2992 RMK A01 T02530174  RH  061%=      5-min Rain = 0
KPG1 141030Z 29007KT 25/17 A2992 RMK A01 T02530173  RH  061%=      5-min Rain = 0
KPG1 141031Z 28006KT 25/17 A2992 RMK A01 T02530173  RH  061%=      5-min Rain = 0
KPG1 141032Z 27006KT 25/17 A2993 RMK A01 T02530174  RH  061%=      5-min Rain = 0
KPG1 141033Z 26005KT 25/18 A2993 RMK A01 T02530175  RH  062%=      5-min Rain = 0
KPG1 141034Z 28006KT 25/18 A2993 RMK A01 T02510176  RH  063%=      5-min Rain = 0
KPG1 141035Z 28006KT 25/18 A2993 RMK A01 T02510175  RH  063%=      5-min Rain = 0
KPG1 141036Z 26005KT 25/17 A2993 RMK A01 T02500174  RH  063%=      5-min Rain = 0
KPG1 141037Z 28004KT 25/18 A2993 RMK A01 T02500176  RH  063%=      5-min Rain = 0
KPG1 141038Z 28003KT 25/18 A2993 RMK A01 T02500176  RH  064%=      5-min Rain = 0
KPG1 141039Z 27003KT 25/18 A2993 RMK A01 T02490176  RH  064%=      5-min Rain = 0
KPG1 141040Z 27004KT 25/18 A2993 RMK A01 T02480175  RH  064%=      5-min Rain = 0
KPG1 141041Z 27004KT 25/17 A2993 RMK A01 T02490174  RH  063%=      5-min Rain = 0
KPG1 141042Z 25004KT 25/17 A2993 RMK A01 T02490174  RH  063%=      5-min Rain = 0
KPG1 141043Z 20003KT 25/18 A2993 RMK A01 T02490181  RH  066%=      5-min Rain = 0
KPG1 141044Z 16004KT 25/19 A2993 RMK A01 T02450187  RH  070%=      5-min Rain = 0
KPG1 141045Z 16004KT 24/19 A2993 RMK A01 T02400188  RH  073%=      5-min Rain = 0
KPG1 141046Z 17004KT 24/19 A2993 RMK A01 T02370189  RH  075%=      5-min Rain = 0
KPG1 141047Z 17004KT 24/19 A2993 RMK A01 T02350189  RH  076%=      5-min Rain = 0
KPG1 141048Z 17004KT 23/19 A2993 RMK A01 T02330189  RH  076%=      5-min Rain = 0
KPG1 141049Z 18004KT 23/19 A2993 RMK A01 T02320188  RH  076%=      5-min Rain = 0
KPG1 141050Z 19003KT 23/19 A2993 RMK A01 T02320189  RH  077%=      5-min Rain = 0
KPG1 141051Z 20003KT 23/19 A2993 RMK A01 T02320189  RH  077%=      5-min Rain = 0
KPG1 141052Z 19002KT 23/19 A2993 RMK A01 T02320188  RH  076%=      5-min Rain = 0
KPG1 141053Z 19002KT 23/19 A2993 RMK A01 T02320187  RH  076%=      5-min Rain = 0
KPG1 141054Z 18002KT 23/19 A2993 RMK A01 T02320187  RH  076%=      5-min Rain = 0
KPG1 141055Z 18002KT 23/19 A2993 RMK A01 T02320187  RH  076%=      5-min Rain = 0
KPG1 141056Z 17002KT 23/19 A2993 RMK A01 T02320187  RH  076%=      5-min Rain = 0
KPG1 141057Z 17002KT 23/19 A2993 RMK A01 T02330188  RH  076%=      5-min Rain = 0
KPG1 141058Z 18002KT 23/19 A2993 RMK A01 T02320187  RH  076%=      5-min Rain = 0
KPG1 141059Z 19002KT 23/19 A2993 RMK A01 T02320188  RH  076%=      5-min Rain = 0
KPG1 141100Z 19002KT 23/19 A2993 RMK A01 T02330186  RH  075%=      5-min Rain = 0
KPG1 141101Z 22001KT 23/18 A2993 RMK A01 T02330184  RH  074%=      5-min Rain = 0
KPG1 141102Z 19002KT 23/19 A2993 RMK A01 T02340186  RH  074%=      5-min Rain = 0
KPG1 141103Z 20002KT 23/19 A2993 RMK A01 T02340187  RH  075%=      5-min Rain = 0
KPG1 141104Z 20002KT 23/19 A2993 RMK A01 T02340188  RH  075%=      5-min Rain = 0
KPG1 141105Z 20003KT 23/19 A2993 RMK A01 T02340190  RH  076%=      5-min Rain = 0
KPG1 141106Z 20003KT 23/19 A2993 RMK A01 T02330190  RH  076%=      5-min Rain = 0
KPG1 141107Z 21003KT 23/19 A2993 RMK A01 T02330190  RH  077%=      5-min Rain = 0
KPG1 141108Z 21004KT 23/19 A2993 RMK A01 T02320190  RH  077%=      5-min Rain = 0
KPG1 141109Z 20003KT 23/19 A2993 RMK A01 T02320191  RH  078%=      5-min Rain = 0
KPG1 141110Z 19003KT 23/19 A2993 RMK A01 T02310191  RH  078%=      5-min Rain = 0
KPG1 141111Z 20003KT 23/19 A2993 RMK A01 T02310192  RH  079%=      5-min Rain = 0
KPG1 141112Z 21004KT 23/19 A2993 RMK A01 T02310192  RH  079%=      5-min Rain = 0
KPG1 141113Z 20003KT 23/19 A2993 RMK A01 T02300192  RH  079%=      5-min Rain = 0
KPG1 141114Z 20003KT 23/19 A2993 RMK A01 T02300193  RH  080%=      5-min Rain = 0
KPG1 141115Z 19002KT 23/19 A2993 RMK A01 T02290193  RH  080%=      5-min Rain = 0
KPG1 141116Z 19002KT 23/19 A2993 RMK A01 T02290193  RH  080%=      5-min Rain = 0
KPG1 141117Z 19002KT 23/19 A2993 RMK A01 T02290194  RH  081%=      5-min Rain = 0
KPG1 141118Z 19002KT 23/19 A2994 RMK A01 T02290194  RH  081%=      5-min Rain = 0
KPG1 141119Z 19002KT 23/19 A2994 RMK A01 T02290193  RH  080%=      5-min Rain = 0
KPG1 141120Z 19002KT 23/19 A2993 RMK A01 T02290193  RH  080%=      5-min Rain = 0
KPG1 141121Z 19001KT 23/19 A2994 RMK A01 T02290192  RH  080%=      5-min Rain = 0
KPG1 141122Z 20002KT 23/19 A2994 RMK A01 T02290193  RH  080%=      5-min Rain = 0
KPG1 141123Z 18002KT 23/19 A2994 RMK A01 T02290193  RH  080%=      5-min Rain = 0
KPG1 141124Z 18001KT 23/19 A2994 RMK A01 T02290191  RH  079%=      5-min Rain = 0
KPG1 141125Z 16002KT 23/19 A2994 RMK A01 T02300191  RH  079%=      5-min Rain = 0
KPG1 141126Z 18002KT 23/19 A2994 RMK A01 T02300192  RH  079%=      5-min Rain = 0
KPG1 141127Z 19002KT 23/19 A2994 RMK A01 T02300192  RH  079%=      5-min Rain = 0
KPG1 141128Z 20002KT 23/19 A2994 RMK A01 T02300191  RH  079%=      5-min Rain = 0
KPG1 141129Z 24001KT 23/19 A2994 RMK A01 T02300192  RH  079%=      5-min Rain = 0
KPG1 141130Z 00000KT 23/19 A2994 RMK A01 T02310188  RH  077%=      5-min Rain = 0
KPG1 141131Z 27000KT 23/19 A2994 RMK A01 T02310188  RH  076%=      5-min Rain = 0
KPG1 141132Z 26000KT 23/19 A2994 RMK A01 T02320190  RH  077%=      5-min Rain = 0
KPG1 141133Z 30000KT 23/19 A2994 RMK A01 T02320193  RH  078%=      5-min Rain = 0
KPG1 141134Z 30001KT 23/19 A2994 RMK A01 T02320190  RH  077%=      5-min Rain = 0
KPG1 141135Z 31001KT 23/19 A2994 RMK A01 T02320193  RH  078%=      5-min Rain = 0
KPG1 141136Z 29001KT 23/20 A2994 RMK A01 T02330195  RH  079%=      5-min Rain = 0
KPG1 141137Z 28001KT 23/20 A2994 RMK A01 T02330195  RH  079%=      5-min Rain = 0
KPG1 141138Z 27002KT 23/20 A2994 RMK A01 T02330195  RH  079%=      5-min Rain = 0
KPG1 141139Z 27002KT 23/19 A2994 RMK A01 T02320189  RH  076%=      5-min Rain = 0
KPG1 141140Z 28003KT 23/19 A2994 RMK A01 T02330190  RH  077%=      5-min Rain = 0
KPG1 141141Z 28002KT 23/19 A2994 RMK A01 T02330189  RH  076%=      5-min Rain = 0
KPG1 141142Z 27002KT 23/19 A2994 RMK A01 T02340188  RH  076%=      5-min Rain = 0
KPG1 141143Z 30002KT 23/19 A2994 RMK A01 T02340190  RH  076%=      5-min Rain = 0
KPG1 141144Z 29001KT 23/19 A2994 RMK A01 T02340191  RH  077%=      5-min Rain = 0
KPG1 141145Z 28001KT 24/19 A2993 RMK A01 T02350193  RH  077%=      5-min Rain = 0
KPG1 141146Z 34000KT 24/19 A2993 RMK A01 T02350191  RH  077%=      5-min Rain = 0
KPG1 141147Z 00000KT 24/19 A2993 RMK A01 T02350190  RH  076%=      5-min Rain = 0
KPG1 141148Z 00000KT 24/19 A2993 RMK A01 T02350191  RH  076%=      5-min Rain = 0
KPG1 141149Z 02000KT 24/19 A2993 RMK A01 T02350194  RH  078%=      5-min Rain = 0
KPG1 141150Z 01001KT 24/19 A2993 RMK A01 T02350192  RH  077%=      5-min Rain = 0
KPG1 141151Z 00000KT 24/19 A2993 RMK A01 T02350190  RH  076%=      5-min Rain = 0
KPG1 141152Z 35000KT 24/19 A2993 RMK A01 T02350192  RH  077%=      5-min Rain = 0
KPG1 141153Z 33001KT 24/19 A2993 RMK A01 T02350188  RH  075%=      5-min Rain = 0
KPG1 141154Z 32001KT 24/19 A2993 RMK A01 T02350186  RH  074%=      5-min Rain = 0
KPG1 141155Z 29002KT 24/19 A2993 RMK A01 T02360185  RH  073%=      5-min Rain = 0
KPG1 141156Z 28003KT 24/19 A2994 RMK A01 T02360186  RH  073%=      5-min Rain = 0
KPG1 141157Z 27004KT 24/19 A2993 RMK A01 T02380187  RH  073%=      5-min Rain = 0
KPG1 141158Z 28004KT 24/19 A2993 RMK A01 T02380187  RH  073%=      5-min Rain = 0
KPG1 141159Z 27004KT 24/19 A2993 RMK A01 T02390186  RH  072%=      5-min Rain = 0
KPG1 141200Z 27004KT 24/18 A2993 RMK A01 T02390184  RH  071%=      5-min Rain = 0
KPG1 141201Z 27004KT 24/18 A2993 RMK A01 T02400183  RH  070%=      5-min Rain = 0
KPG1 141202Z 27004KT 24/18 A2993 RMK A01 T02410182  RH  070%=      5-min Rain = 0
KPG1 141203Z 27004KT 24/18 A2993 RMK A01 T02410182  RH  069%=      5-min Rain = 0
KPG1 141204Z 27004KT 24/18 A2993 RMK A01 T02410182  RH  069%=      5-min Rain = 0
KPG1 141205Z 27004KT 24/18 A2993 RMK A01 T02420182  RH  069%=      5-min Rain = 0
KPG1 141206Z 27004KT 24/18 A2993 RMK A01 T02420183  RH  070%=      5-min Rain = 0
KPG1 141207Z 27004KT 24/18 A2993 RMK A01 T02410184  RH  070%=      5-min Rain = 0
KPG1 141208Z 28004KT 24/18 A2993 RMK A01 T02410184  RH  070%=      5-min Rain = 0
KPG1 141209Z 27004KT 24/19 A2993 RMK A01 T02410185  RH  071%=      5-min Rain = 0
KPG1 141210Z 28004KT 24/19 A2993 RMK A01 T02400185  RH  071%=      5-min Rain = 0
KPG1 141211Z 27003KT 24/19 A2993 RMK A01 T02400186  RH  072%=      5-min Rain = 0
KPG1 141212Z 27003KT 24/18 A2993 RMK A01 T02400184  RH  071%=      5-min Rain = 0
KPG1 141213Z 27002KT 24/19 A2993 RMK A01 T02400188  RH  073%=      5-min Rain = 0
KPG1 141214Z 25001KT 24/19 A2993 RMK A01 T02390192  RH  075%=      5-min Rain = 0
KPG1 141215Z 23002KT 24/19 A2993 RMK A01 T02380191  RH  075%=      5-min Rain = 0
KPG1 141216Z 23001KT 24/19 A2993 RMK A01 T02370193  RH  076%=      5-min Rain = 0
KPG1 141217Z 23002KT 24/20 A2993 RMK A01 T02370196  RH  078%=      5-min Rain = 0
KPG1 141218Z 23002KT 24/19 A2993 RMK A01 T02360194  RH  077%=      5-min Rain = 0
KPG1 141219Z 22001KT 24/20 A2993 RMK A01 T02350195  RH  078%=      5-min Rain = 0
KPG1 141220Z 22002KT 24/20 A2993 RMK A01 T02350196  RH  079%=      5-min Rain = 0
KPG1 141221Z 21002KT 23/20 A2993 RMK A01 T02340195  RH  079%=      5-min Rain = 0
KPG1 141222Z 20002KT 23/19 A2993 RMK A01 T02330194  RH  079%=      5-min Rain = 0
KPG1 141223Z 16002KT 23/19 A2993 RMK A01 T02330194  RH  079%=      5-min Rain = 0
KPG1 141224Z 16001KT 23/19 A2993 RMK A01 T02330193  RH  078%=      5-min Rain = 0
KPG1 141225Z 17001KT 23/19 A2993 RMK A01 T02330191  RH  077%=      5-min Rain = 0
KPG1 141226Z 16002KT 23/19 A2993 RMK A01 T02340189  RH  076%=      5-min Rain = 0
KPG1 141227Z 17002KT 24/19 A2993 RMK A01 T02350189  RH  076%=      5-min Rain = 0
KPG1 141228Z 17002KT 24/19 A2993 RMK A01 T02350189  RH  075%=      5-min Rain = 0
KPG1 141229Z 17003KT 24/19 A2993 RMK A01 T02360190  RH  075%=      5-min Rain = 0
KPG1 141230Z 17003KT 24/19 A2993 RMK A01 T02360189  RH  075%=      5-min Rain = 0
KPG1 141231Z 18003KT 24/19 A2993 RMK A01 T02360189  RH  075%=      5-min Rain = 0
KPG1 141232Z 18003KT 24/19 A2993 RMK A01 T02360189  RH  075%=      5-min Rain = 0
KPG1 141233Z 19003KT 24/19 A2993 RMK A01 T02370192  RH  076%=      5-min Rain = 0
KPG1 141234Z 19003KT 24/19 A2993 RMK A01 T02360193  RH  076%=      5-min Rain = 0
KPG1 141235Z 18003KT 24/20 A2993 RMK A01 T02360195  RH  078%=      5-min Rain = 0
KPG1 141236Z 19003KT 24/20 A2993 RMK A01 T02350197  RH  079%=      5-min Rain = 0
KPG1 141237Z 18004KT 23/20 A2993 RMK A01 T02340197  RH  079%=      5-min Rain = 0
KPG1 141238Z 18004KT 23/20 A2993 RMK A01 T02330198  RH  080%=      5-min Rain = 0
KPG1 141239Z 19004KT 23/20 A2993 RMK A01 T02330197  RH  081%=      5-min Rain = 0
KPG1 141240Z 20004KT 23/20 A2993 RMK A01 T02320199  RH  082%=      5-min Rain = 0
KPG1 141241Z 20004KT 23/20 A2993 RMK A01 T02320201  RH  083%=      5-min Rain = 0
KPG1 141242Z 20004KT 23/20 A2993 RMK A01 T02310199  RH  082%=      5-min Rain = 0
KPG1 141243Z 20003KT 23/20 A2993 RMK A01 T02310199  RH  082%=      5-min Rain = 0
KPG1 141244Z 21003KT 23/20 A2993 RMK A01 T02310201  RH  083%=      5-min Rain = 0
KPG1 141245Z 20003KT 23/20 A2993 RMK A01 T02310204  RH  084%=      5-min Rain = 0
KPG1 141246Z 19004KT 23/20 A2993 RMK A01 T02310204  RH  085%=      5-min Rain = 0
KPG1 141247Z 19003KT 23/20 A2993 RMK A01 T02300204  RH  085%=      5-min Rain = 0
KPG1 141248Z 20003KT 23/21 A2993 RMK A01 T02300205  RH  086%=      5-min Rain = 0
KPG1 141249Z 19004KT 23/21 A2993 RMK A01 T02290206  RH  087%=      5-min Rain = 0
KPG1 141250Z 18004KT 23/21 A2993 RMK A01 T02290206  RH  087%=      5-min Rain = 0
KPG1 141251Z 18004KT 23/21 A2994 RMK A01 T02280205  RH  087%=      5-min Rain = 0
KPG1 141252Z 18004KT 23/21 A2994 RMK A01 T02280205  RH  087%=      5-min Rain = 0
KPG1 141253Z 18004KT 23/21 A2994 RMK A01 T02280205  RH  087%=      5-min Rain = 0
KPG1 141254Z 18004KT 23/21 A2994 RMK A01 T02270205  RH  087%=      5-min Rain = 0
KPG1 141255Z 19004KT 23/20 A2994 RMK A01 T02270204  RH  086%=      5-min Rain = 0
KPG1 141256Z 18004KT 23/20 A2994 RMK A01 T02270202  RH  086%=      5-min Rain = 0
KPG1 141257Z 20004KT 23/20 A2994 RMK A01 T02270203  RH  086%=      5-min Rain = 0
KPG1 141258Z 21004KT 23/20 A2994 RMK A01 T02270202  RH  086%=      5-min Rain = 0
KPG1 141259Z 21004KT 23/20 A2994 RMK A01 T02280200  RH  084%=      5-min Rain = 0
KPG1 141300Z 20004KT 23/20 A2994 RMK A01 T02280199  RH  084%=      5-min Rain = 0
KPG1 141301Z 20003KT 23/20 A2994 RMK A01 T02290200  RH  084%=      5-min Rain = 0
KPG1 141302Z 18004KT 23/20 A2994 RMK A01 T02290200  RH  084%=      5-min Rain = 0
KPG1 141303Z 19003KT 23/20 A2994 RMK A01 T02290199  RH  083%=      5-min Rain = 0
KPG1 141304Z 19003KT 23/20 A2994 RMK A01 T02290197  RH  082%=      5-min Rain = 0
KPG1 141305Z 19003KT 23/20 A2994 RMK A01 T02300200  RH  083%=      5-min Rain = 0
KPG1 141306Z 19003KT 23/20 A2994 RMK A01 T02300201  RH  084%=      5-min Rain = 0
KPG1 141307Z 19003KT 23/20 A2994 RMK A01 T02300199  RH  083%=      5-min Rain = 0
KPG1 141308Z 21003KT 23/20 A2994 RMK A01 T02300198  RH  083%=      5-min Rain = 0
KPG1 141309Z 20003KT 23/20 A2994 RMK A01 T02300196  RH  081%=      5-min Rain = 0
KPG1 141310Z 21003KT 23/20 A2994 RMK A01 T02310196  RH  081%=      5-min Rain = 0
KPG1 141311Z 22003KT 23/20 A2994 RMK A01 T02310196  RH  081%=      5-min Rain = 0
KPG1 141312Z 22003KT 23/20 A2994 RMK A01 T02310197  RH  081%=      5-min Rain = 0
KPG1 141313Z 23002KT 23/20 A2994 RMK A01 T02320195  RH  080%=      5-min Rain = 0
KPG1 141314Z 23002KT 23/20 A2994 RMK A01 T02320195  RH  080%=      5-min Rain = 0
KPG1 141315Z 23002KT 23/20 A2994 RMK A01 T02320198  RH  081%=      5-min Rain = 0
KPG1 141316Z 22002KT 23/20 A2994 RMK A01 T02320198  RH  081%=      5-min Rain = 0
KPG1 141317Z 20002KT 23/20 A2994 RMK A01 T02330197  RH  081%=      5-min Rain = 0
KPG1 141318Z 20002KT 23/20 A2994 RMK A01 T02320198  RH  081%=      5-min Rain = 0
KPG1 141319Z 19002KT 23/19 A2994 RMK A01 T02320194  RH  079%=      5-min Rain = 0
KPG1 141320Z 18002KT 23/20 A2994 RMK A01 T02330195  RH  079%=      5-min Rain = 0
KPG1 141321Z 17003KT 23/20 A2994 RMK A01 T02330196  RH  080%=      5-min Rain = 0
KPG1 141322Z 17003KT 23/19 A2994 RMK A01 T02340194  RH  078%=      5-min Rain = 0
KPG1 141323Z 16003KT 23/19 A2994 RMK A01 T02340194  RH  078%=      5-min Rain = 0
KPG1 141324Z 16003KT 24/20 A2994 RMK A01 T02350196  RH  079%=      5-min Rain = 0
KPG1 141325Z 16002KT 24/19 A2994 RMK A01 T02350193  RH  078%=      5-min Rain = 0
KPG1 141326Z 17002KT 24/19 A2994 RMK A01 T02350189  RH  075%=      5-min Rain = 0
KPG1 141327Z 18002KT 24/19 A2994 RMK A01 T02360187  RH  074%=      5-min Rain = 0
KPG1 141328Z 20002KT 24/19 A2994 RMK A01 T02370187  RH  073%=      5-min Rain = 0
KPG1 141329Z 18002KT 24/19 A2994 RMK A01 T02380185  RH  072%=      5-min Rain = 0
KPG1 141330Z 18002KT 24/19 A2994 RMK A01 T02380186  RH  072%=      5-min Rain = 0
KPG1 141331Z 18002KT 24/19 A2994 RMK A01 T02390185  RH  072%=      5-min Rain = 0
KPG1 141332Z 17002KT 24/19 A2994 RMK A01 T02390188  RH  073%=      5-min Rain = 0
KPG1 141333Z 18002KT 24/19 A2994 RMK A01 T02390189  RH  073%=      5-min Rain = 0
KPG1 141334Z 17001KT 24/18 A2994 RMK A01 T02390184  RH  071%=      5-min Rain = 0
KPG1 141335Z 19001KT 24/19 A2994 RMK A01 T02400187  RH  072%=      5-min Rain = 0
KPG1 141336Z 19000KT 24/19 A2994 RMK A01 T02400187  RH  072%=      5-min Rain = 0
KPG1 141337Z 19001KT 24/19 A2994 RMK A01 T02400187  RH  072%=      5-min Rain = 0
KPG1 141338Z 15001KT 24/19 A2994 RMK A01 T02400187  RH  072%=      5-min Rain = 0
KPG1 141339Z 14002KT 24/19 A2994 RMK A01 T02400186  RH  072%=      5-min Rain = 0
KPG1 141340Z 13002KT 24/19 A2994 RMK A01 T02400186  RH  072%=      5-min Rain = 0
KPG1 141341Z 12002KT 24/18 A2994 RMK A01 T02400184  RH  071%=      5-min Rain = 0
KPG1 141342Z 12002KT 24/19 A2994 RMK A01 T02400185  RH  071%=      5-min Rain = 0
KPG1 141343Z 11001KT 24/19 A2994 RMK A01 T02410186  RH  071%=      5-min Rain = 0
KPG1 141344Z 11001KT 24/18 A2994 RMK A01 T02410181  RH  069%=      5-min Rain = 0
KPG1 141345Z 11001KT 24/18 A2994 RMK A01 T02410181  RH  069%=      5-min Rain = 0
KPG1 141346Z 10001KT 24/18 A2994 RMK A01 T02420182  RH  069%=      5-min Rain = 0
KPG1 141347Z 13000KT 24/18 A2994 RMK A01 T02420180  RH  068%=      5-min Rain = 0
KPG1 141348Z 12000KT 24/18 A2994 RMK A01 T02430182  RH  069%=      5-min Rain = 0
KPG1 141349Z 20000KT 24/18 A2994 RMK A01 T02430183  RH  069%=      5-min Rain = 0
KPG1 141350Z 19001KT 24/18 A2994 RMK A01 T02440182  RH  069%=      5-min Rain = 0
KPG1 141351Z 20001KT 24/19 A2994 RMK A01 T02440186  RH  070%=      5-min Rain = 0
KPG1 141352Z 19001KT 25/19 A2994 RMK A01 T02450191  RH  072%=      5-min Rain = 0
KPG1 141353Z 19001KT 25/19 A2994 RMK A01 T02450191  RH  072%=      5-min Rain = 0
KPG1 141354Z 18001KT 25/19 A2994 RMK A01 T02450190  RH  072%=      5-min Rain = 0
KPG1 141355Z 19001KT 25/19 A2994 RMK A01 T02450190  RH  072%=      5-min Rain = 0
KPG1 141356Z 18002KT 25/19 A2994 RMK A01 T02450190  RH  072%=      5-min Rain = 0
KPG1 141357Z 19002KT 25/19 A2994 RMK A01 T02450190  RH  071%=      5-min Rain = 0
KPG1 141358Z 20001KT 25/19 A2994 RMK A01 T02450190  RH  071%=      5-min Rain = 0
KPG1 141359Z 21002KT 25/19 A2995 RMK A01 T02450191  RH  072%=      5-min Rain = 0
KPG1 141400Z 21002KT 25/19 A2995 RMK A01 T02450190  RH  071%=      5-min Rain = 0
KPG1 141411Z 02004KT 25/19 A2996 RMK A01 T02470194  RH  073%=      5-min Rain = 0
KPG1 141412Z 03005KT 25/20 A2996 RMK A01 T02460195  RH  073%=      5-min Rain = 0
KPG1 141413Z 03005KT 25/20 A2996 RMK A01 T02450195  RH  074%=      5-min Rain = 0
KPG1 141414Z 03005KT 24/20 A2996 RMK A01 T02440195  RH  074%=      5-min Rain = 0
KPG1 141415Z 03004KT 24/20 A2996 RMK A01 T02440195  RH  074%=      5-min Rain = 0
KPG1 141416Z 03005KT 24/20 A2996 RMK A01 T02440196  RH  075%=      5-min Rain = 0
KPG1 141417Z 02005KT 24/19 A2996 RMK A01 T02440194  RH  074%=      5-min Rain = 0
KPG1 141418Z 03004KT 24/20 A2996 RMK A01 T02440195  RH  074%=      5-min Rain = 0
KPG1 141419Z 02005KT 24/20 A2996 RMK A01 T02440195  RH  074%=      5-min Rain = 0
KPG1 141420Z 02005KT 24/19 A2996 RMK A01 T02440194  RH  074%=      5-min Rain = 0
KPG1 141421Z 03005KT 24/19 A2996 RMK A01 T02440194  RH  074%=      5-min Rain = 0
KPG1 141422Z 02005KT 24/19 A2996 RMK A01 T02440194  RH  073%=      5-min Rain = 0
KPG1 141423Z 03004KT 24/19 A2996 RMK A01 T02440193  RH  073%=      5-min Rain = 0
KPG1 141424Z 03005KT 24/19 A2996 RMK A01 T02440193  RH  073%=      5-min Rain = 0
KPG1 141425Z 03006KT 24/19 A2996 RMK A01 T02440192  RH  073%=      5-min Rain = 0
KPG1 141426Z 04005KT 24/19 A2996 RMK A01 T02440193  RH  073%=      5-min Rain = 0
KPG1 141427Z 04005KT 24/19 A2996 RMK A01 T02440194  RH  074%=      5-min Rain = 0
KPG1 141428Z 03005KT 24/19 A2996 RMK A01 T02440194  RH  073%=      5-min Rain = 0
KPG1 141429Z 04005KT 24/19 A2996 RMK A01 T02440194  RH  073%=      5-min Rain = 0
KPG1 141430Z 04006KT 25/19 A2996 RMK A01 T02450193  RH  073%=      5-min Rain = 0
KPG1 141431Z 04006KT 25/19 A2996 RMK A01 T02450192  RH  073%=      5-min Rain = 0
KPG1 141432Z 04006KT 25/19 A2996 RMK A01 T02450193  RH  073%=      5-min Rain = 0
KPG1 141433Z 04007KT 24/19 A2996 RMK A01 T02440192  RH  073%=      5-min Rain = 0
KPG1 141434Z 03007KT 25/19 A2996 RMK A01 T02450193  RH  073%=      5-min Rain = 0
KPG1 141435Z 03004KT 25/19 A2996 RMK A01 T02450192  RH  073%=      5-min Rain = 0
KPG1 141436Z 02007KT 25/19 A2996 RMK A01 T02450192  RH  073%=      5-min Rain = 0
KPG1 141437Z 03006KT 25/19 A2996 RMK A01 T02450191  RH  072%=      5-min Rain = 0
KPG1 141438Z 03006KT 25/19 A2996 RMK A01 T02460191  RH  071%=      5-min Rain = 0
KPG1 141439Z 02006KT 25/19 A2996 RMK A01 T02460189  RH  071%=      5-min Rain = 0
KPG1 141440Z 01006KT 25/19 A2996 RMK A01 T02460190  RH  071%=      5-min Rain = 0
KPG1 141441Z 02006KT 25/19 A2996 RMK A01 T02470188  RH  070%=      5-min Rain = 0
KPG1 141442Z 01005KT 25/19 A2996 RMK A01 T02470189  RH  070%=      5-min Rain = 0
KPG1 141443Z 01004KT 25/19 A2996 RMK A01 T02470188  RH  070%=      5-min Rain = 0
KPG1 141444Z 01003KT 25/19 A2996 RMK A01 T02480189  RH  070%=      5-min Rain = 0
KPG1 141445Z 01003KT 25/19 A2996 RMK A01 T02480189  RH  070%=      5-min Rain = 0
KPG1 141446Z 02004KT 25/19 A2996 RMK A01 T02480190  RH  070%=      5-min Rain = 0
KPG1 141447Z 01005KT 25/19 A2996 RMK A01 T02490188  RH  069%=      5-min Rain = 0
KPG1 141448Z 01004KT 25/19 A2996 RMK A01 T02490189  RH  069%=      5-min Rain = 0
KPG1 141449Z 00004KT 25/19 A2996 RMK A01 T02490188  RH  069%=      5-min Rain = 0
KPG1 141450Z 01004KT 25/19 A2996 RMK A01 T02500189  RH  069%=      5-min Rain = 0
KPG1 141451Z 01004KT 25/19 A2996 RMK A01 T02500189  RH  069%=      5-min Rain = 0
KPG1 141452Z 02004KT 25/19 A2996 RMK A01 T02500189  RH  069%=      5-min Rain = 0
KPG1 141453Z 01003KT 25/19 A2996 RMK A01 T02500190  RH  069%=      5-min Rain = 0
KPG1 141454Z 01003KT 25/19 A2996 RMK A01 T02510191  RH  069%=      5-min Rain = 0
KPG1 141455Z 36002KT 25/19 A2996 RMK A01 T02510190  RH  069%=      5-min Rain = 0
KPG1 141456Z 33001KT 25/19 A2996 RMK A01 T02520191  RH  069%=      5-min Rain = 0
KPG1 141457Z 28001KT 25/19 A2996 RMK A01 T02520190  RH  069%=      5-min Rain = 0
KPG1 141458Z 24003KT 25/19 A2996 RMK A01 T02530190  RH  068%=      5-min Rain = 0
KPG1 141459Z 24003KT 25/19 A2996 RMK A01 T02530189  RH  068%=      5-min Rain = 0
KPG1 141500Z 23003KT 25/19 A2996 RMK A01 T02530189  RH  068%=      5-min Rain = 0
KPG1 141501Z 23003KT 25/19 A2996 RMK A01 T02530189  RH  068%=      5-min Rain = 0
KPG1 141502Z 23003KT 25/19 A2996 RMK A01 T02530189  RH  068%=      5-min Rain = 0
KPG1 141503Z 22003KT 25/19 A2996 RMK A01 T02530188  RH  067%=      5-min Rain = 0
KPG1 141504Z 22002KT 25/19 A2995 RMK A01 T02530191  RH  068%=      5-min Rain = 0
KPG1 141505Z 22003KT 25/19 A2995 RMK A01 T02530190  RH  068%=      5-min Rain = 0
KPG1 141506Z 22003KT 25/19 A2995 RMK A01 T02540190  RH  068%=      5-min Rain = 0
KPG1 141507Z 22003KT 25/19 A2995 RMK A01 T02540190  RH  068%=      5-min Rain = 0
KPG1 141508Z 22004KT 25/19 A2995 RMK A01 T02540191  RH  068%=      5-min Rain = 0
KPG1 141509Z 22004KT 26/19 A2996 RMK A01 T02550191  RH  068%=      5-min Rain = 0
KPG1 141510Z 21004KT 26/19 A2996 RMK A01 T02550192  RH  068%=      5-min Rain = 0
KPG1 141511Z 21003KT 26/19 A2996 RMK A01 T02550193  RH  069%=      5-min Rain = 0
KPG1 141512Z 21004KT 26/19 A2996 RMK A01 T02560193  RH  068%=      5-min Rain = 0
KPG1 141513Z 21004KT 26/19 A2996 RMK A01 T02560191  RH  067%=      5-min Rain = 0
KPG1 141514Z 20004KT 26/19 A2996 RMK A01 T02560193  RH  068%=      5-min Rain = 0
KPG1 141515Z 20004KT 26/20 A2996 RMK A01 T02570195  RH  068%=      5-min Rain = 0
KPG1 141516Z 22005KT 26/19 A2996 RMK A01 T02580193  RH  067%=      5-min Rain = 0
KPG1 141517Z 20004KT 26/19 A2996 RMK A01 T02590193  RH  067%=      5-min Rain = 0
KPG1 141518Z 17005KT 26/20 A2996 RMK A01 T02590196  RH  068%=      5-min Rain = 0
KPG1 141519Z 17004KT 26/20 A2996 RMK A01 T02610197  RH  068%=      5-min Rain = 0
KPG1 141520Z 18005KT 26/20 A2996 RMK A01 T02620196  RH  067%=      5-min Rain = 0
KPG1 141521Z 17005KT 26/20 A2996 RMK A01 T02630197  RH  067%=      5-min Rain = 0
KPG1 141522Z 17005KT 26/20 A2996 RMK A01 T02630195  RH  066%=      5-min Rain = 0
KPG1 141523Z 16005KT 26/19 A2996 RMK A01 T02630193  RH  066%=      5-min Rain = 0
KPG1 141524Z 15005KT 26/19 A2996 RMK A01 T02630194  RH  066%=      5-min Rain = 0
KPG1 141525Z 16004KT 27/19 A2996 RMK A01 T02650194  RH  065%=      5-min Rain = 0
KPG1 141526Z 17004KT 27/20 A2996 RMK A01 T02660195  RH  065%=      5-min Rain = 0
KPG1 141527Z 14003KT 27/19 A2996 RMK A01 T02660193  RH  064%=      5-min Rain = 0
KPG1 141528Z 14005KT 27/19 A2996 RMK A01 T02650193  RH  064%=      5-min Rain = 0
KPG1 141529Z 15005KT 26/19 A2996 RMK A01 T02640192  RH  064%=      5-min Rain = 0
KPG1 141530Z 14003KT 26/19 A2996 RMK A01 T02630193  RH  065%=      5-min Rain = 0
KPG1 141531Z 15004KT 26/19 A2996 RMK A01 T02640194  RH  066%=      5-min Rain = 0
KPG1 141532Z 15004KT 27/19 A2996 RMK A01 T02650194  RH  065%=      5-min Rain = 0
KPG1 141533Z 15005KT 27/19 A2996 RMK A01 T02670192  RH  064%=      5-min Rain = 0
KPG1 141534Z 14004KT 27/19 A2996 RMK A01 T02670192  RH  063%=      5-min Rain = 0
KPG1 141535Z 15004KT 27/19 A2996 RMK A01 T02680193  RH  063%=      5-min Rain = 0
KPG1 141536Z 14004KT 27/19 A2996 RMK A01 T02700192  RH  062%=      5-min Rain = 0
KPG1 141537Z 13004KT 27/19 A2996 RMK A01 T02710191  RH  062%=      5-min Rain = 0
KPG1 141538Z 15003KT 27/19 A2996 RMK A01 T02710190  RH  062%=      5-min Rain = 0
KPG1 141539Z 15005KT 27/19 A2996 RMK A01 T02700191  RH  062%=      5-min Rain = 0
KPG1 141540Z 15004KT 27/19 A2996 RMK A01 T02700189  RH  061%=      5-min Rain = 0
KPG1 141541Z 14004KT 27/19 A2996 RMK A01 T02690190  RH  062%=      5-min Rain = 0
KPG1 141542Z 16002KT 27/19 A2996 RMK A01 T02690191  RH  062%=      5-min Rain = 0
KPG1 141543Z 18000KT 27/19 A2996 RMK A01 T02700191  RH  062%=      5-min Rain = 0
KPG1 141544Z 12000KT 27/19 A2996 RMK A01 T02700191  RH  062%=      5-min Rain = 0
KPG1 141545Z 18001KT 27/19 A2996 RMK A01 T02710192  RH  062%=      5-min Rain = 0
KPG1 141546Z 20001KT 27/19 A2996 RMK A01 T02710192  RH  062%=      5-min Rain = 0
KPG1 141547Z 24002KT 27/19 A2996 RMK A01 T02710192  RH  062%=      5-min Rain = 0
KPG1 141548Z 27002KT 27/19 A2996 RMK A01 T02720188  RH  060%=      5-min Rain = 0
KPG1 141549Z 27001KT 27/19 A2996 RMK A01 T02720188  RH  060%=      5-min Rain = 0
KPG1 141550Z 27002KT 27/19 A2996 RMK A01 T02720187  RH  060%=      5-min Rain = 0
KPG1 141551Z 26001KT 27/19 A2996 RMK A01 T02710186  RH  060%=      5-min Rain = 0
KPG1 141552Z 26002KT 27/19 A2996 RMK A01 T02710187  RH  060%=      5-min Rain = 0
KPG1 141553Z 21002KT 27/19 A2996 RMK A01 T02720188  RH  060%=      5-min Rain = 0
KPG1 141554Z 15003KT 27/19 A2996 RMK A01 T02730189  RH  060%=      5-min Rain = 0
KPG1 141555Z 13004KT 28/19 A2996 RMK A01 T02750190  RH  060%=      5-min Rain = 0
KPG1 141556Z 16005KT 28/19 A2996 RMK A01 T02750191  RH  060%=      5-min Rain = 0
KPG1 141557Z 25007KT 28/19 A2996 RMK A01 T02760188  RH  059%=      5-min Rain = 0
KPG1 141558Z 23006KT 28/18 A2996 RMK A01 T02770184  RH  057%=      5-min Rain = 0
KPG1 141559Z 22005KT 28/18 A2996 RMK A01 T02760183  RH  057%=      5-min Rain = 0
KPG1 141600Z 22005KT 28/19 A2996 RMK A01 T02750185  RH  058%=      5-min Rain = 0
KPG1 141601Z 23006KT 28/18 A2996 RMK A01 T02750184  RH  057%=      5-min Rain = 0
KPG1 141602Z 22006KT 28/18 A2996 RMK A01 T02760184  RH  057%=      5-min Rain = 0
KPG1 141603Z 21004KT 28/18 A2996 RMK A01 T02750184  RH  057%=      5-min Rain = 0
KPG1 141604Z 22003KT 28/18 A2996 RMK A01 T02750184  RH  057%=      5-min Rain = 0
KPG1 141605Z 21005KT 27/18 A2996 RMK A01 T02740183  RH  057%=      5-min Rain = 0
KPG1 141606Z 22005KT 27/18 A2996 RMK A01 T02740180  RH  056%=      5-min Rain = 0
KPG1 141607Z 21006KT 27/18 A2996 RMK A01 T02740179  RH  056%=      5-min Rain = 0
KPG1 141608Z 21006KT 27/18 A2996 RMK A01 T02740179  RH  056%=      5-min Rain = 0
KPG1 141609Z 22005KT 27/18 A2996 RMK A01 T02740181  RH  057%=      5-min Rain = 0
KPG1 141610Z 23006KT 28/18 A2996 RMK A01 T02750181  RH  057%=      5-min Rain = 0
KPG1 141611Z 22006KT 28/18 A2996 RMK A01 T02750180  RH  056%=      5-min Rain = 0
KPG1 141612Z 22006KT 28/18 A2996 RMK A01 T02750179  RH  056%=      5-min Rain = 0
KPG1 141613Z 22007KT 28/18 A2996 RMK A01 T02750179  RH  056%=      5-min Rain = 0
KPG1 141614Z 22005KT 28/18 A2996 RMK A01 T02750180  RH  056%=      5-min Rain = 0
KPG1 141615Z 20004KT 28/18 A2996 RMK A01 T02760179  RH  056%=      5-min Rain = 0
KPG1 141616Z 23007KT 28/18 A2996 RMK A01 T02760180  RH  056%=      5-min Rain = 0
KPG1 141617Z 23006KT 28/18 A2996 RMK A01 T02760180  RH  056%=      5-min Rain = 0
KPG1 141618Z 22004KT 28/18 A2996 RMK A01 T02760180  RH  056%=      5-min Rain = 0
KPG1 141619Z 23005KT 28/18 A2996 RMK A01 T02770179  RH  055%=      5-min Rain = 0
KPG1 141620Z 25005KT 28/18 A2996 RMK A01 T02770179  RH  055%=      5-min Rain = 0
KPG1 141621Z 24006KT 28/18 A2996 RMK A01 T02780178  RH  055%=      5-min Rain = 0
KPG1 141622Z 25007KT 28/18 A2996 RMK A01 T02780177  RH  054%=      5-min Rain = 0
KPG1 141623Z 25006KT 28/18 A2996 RMK A01 T02780177  RH  054%=      5-min Rain = 0
KPG1 141624Z 25005KT 28/18 A2996 RMK A01 T02770178  RH  055%=      5-min Rain = 0
KPG1 141625Z 25006KT 28/18 A2996 RMK A01 T02770176  RH  054%=      5-min Rain = 0
KPG1 141626Z 25006KT 28/18 A2996 RMK A01 T02780177  RH  054%=      5-min Rain = 0
KPG1 141627Z 26005KT 28/18 A2996 RMK A01 T02790176  RH  054%=      5-min Rain = 0
KPG1 141628Z 26006KT 28/18 A2996 RMK A01 T02790177  RH  054%=      5-min Rain = 0
KPG1 141629Z 27006KT 28/18 A2996 RMK A01 T02790177  RH  054%=      5-min Rain = 0
KPG1 141630Z 27003KT 28/18 A2996 RMK A01 T02780176  RH  054%=      5-min Rain = 0
KPG1 141631Z 25004KT 28/18 A2996 RMK A01 T02780178  RH  055%=      5-min Rain = 0
KPG1 141632Z 25005KT 28/18 A2996 RMK A01 T02790179  RH  054%=      5-min Rain = 0
KPG1 141633Z 25006KT 28/18 A2996 RMK A01 T02810177  RH  054%=      5-min Rain = 0
KPG1 141634Z 26005KT 28/18 A2996 RMK A01 T02810178  RH  054%=      5-min Rain = 0
KPG1 141635Z 27005KT 28/18 A2996 RMK A01 T02810177  RH  053%=      5-min Rain = 0
KPG1 141636Z 26005KT 28/18 A2996 RMK A01 T02790178  RH  054%=      5-min Rain = 0
KPG1 141637Z 27004KT 28/18 A2996 RMK A01 T02800178  RH  054%=      5-min Rain = 0
KPG1 141638Z 23006KT 28/18 A2996 RMK A01 T02800178  RH  054%=      5-min Rain = 0
KPG1 141639Z 24006KT 28/17 A2996 RMK A01 T02800174  RH  052%=      5-min Rain = 0
KPG1 141640Z 23005KT 28/18 A2996 RMK A01 T02800175  RH  053%=      5-min Rain = 0
KPG1 141641Z 23005KT 28/18 A2996 RMK A01 T02790175  RH  053%=      5-min Rain = 0
KPG1 141642Z 24005KT 28/17 A2996 RMK A01 T02800174  RH  052%=      5-min Rain = 0
KPG1 141643Z 24004KT 28/18 A2996 RMK A01 T02800175  RH  053%=      5-min Rain = 0
KPG1 141644Z 23003KT 28/18 A2996 RMK A01 T02810175  RH  052%=      5-min Rain = 0
KPG1 141645Z 22003KT 28/18 A2996 RMK A01 T02820176  RH  053%=      5-min Rain = 0
KPG1 141646Z 25002KT 28/18 A2996 RMK A01 T02820178  RH  053%=      5-min Rain = 0
KPG1 141647Z 25003KT 28/18 A2996 RMK A01 T02820179  RH  053%=      5-min Rain = 0
KPG1 141648Z 24003KT 28/18 A2996 RMK A01 T02830178  RH  053%=      5-min Rain = 0
KPG1 141649Z 22002KT 28/18 A2996 RMK A01 T02830179  RH  053%=      5-min Rain = 0
KPG1 141650Z 21003KT 28/18 A2996 RMK A01 T02820180  RH  054%=      5-min Rain = 0
KPG1 141651Z 22005KT 28/18 A2996 RMK A01 T02830179  RH  053%=      5-min Rain = 0
KPG1 141652Z 22006KT 28/18 A2996 RMK A01 T02830177  RH  052%=      5-min Rain = 0
KPG1 141653Z 24005KT 28/18 A2996 RMK A01 T02830177  RH  052%=      5-min Rain = 0
KPG1 141654Z 25004KT 28/18 A2996 RMK A01 T02820176  RH  053%=      5-min Rain = 0
KPG1 141655Z 23005KT 28/18 A2996 RMK A01 T02820176  RH  052%=      5-min Rain = 0
KPG1 141656Z 23004KT 28/18 A2996 RMK A01 T02820176  RH  052%=      5-min Rain = 0
KPG1 141657Z 23003KT 28/18 A2996 RMK A01 T02820177  RH  053%=      5-min Rain = 0
KPG1 141658Z 23003KT 28/18 A2996 RMK A01 T02820178  RH  053%=      5-min Rain = 0
KPG1 141659Z 21003KT 28/18 A2996 RMK A01 T02820177  RH  053%=      5-min Rain = 0
KPG1 141700Z 22004KT 28/18 A2996 RMK A01 T02820178  RH  053%=      5-min Rain = 0
KPG1 141701Z 23005KT 28/18 A2996 RMK A01 T02820177  RH  053%=      5-min Rain = 0
KPG1 141702Z 24004KT 28/18 A2996 RMK A01 T02830178  RH  053%=      5-min Rain = 0
KPG1 141703Z 21003KT 28/18 A2996 RMK A01 T02840178  RH  053%=      5-min Rain = 0
KPG1 141704Z 21004KT 28/18 A2996 RMK A01 T02840177  RH  052%=      5-min Rain = 0
KPG1 141705Z 22003KT 28/18 A2996 RMK A01 T02840176  RH  052%=      5-min Rain = 0
KPG1 141706Z 23002KT 28/18 A2996 RMK A01 T02840176  RH  052%=      5-min Rain = 0
KPG1 141707Z 23004KT 29/17 A2996 RMK A01 T02850174  RH  051%=      5-min Rain = 0
KPG1 141708Z 20003KT 29/18 A2996 RMK A01 T02850175  RH  051%=      5-min Rain = 0
KPG1 141709Z 20003KT 29/18 A2996 RMK A01 T02860176  RH  051%=      5-min Rain = 0
KPG1 141710Z 20003KT 29/17 A2996 RMK A01 T02860174  RH  051%=      5-min Rain = 0
KPG1 141711Z 19004KT 29/18 A2996 RMK A01 T02860176  RH  051%=      5-min Rain = 0
KPG1 141712Z 18003KT 29/17 A2996 RMK A01 T02880174  RH  050%=      5-min Rain = 0
KPG1 141713Z 20003KT 29/18 A2996 RMK A01 T02880175  RH  050%=      5-min Rain = 0
KPG1 141714Z 18003KT 29/17 A2995 RMK A01 T02890172  RH  049%=      5-min Rain = 0
KPG1 141715Z 17004KT 29/17 A2995 RMK A01 T02900173  RH  049%=      5-min Rain = 0
KPG1 141716Z 18003KT 29/18 A2995 RMK A01 T02930176  RH  049%=      5-min Rain = 0
KPG1 141717Z 18002KT 30/18 A2995 RMK A01 T02970175  RH  048%=      5-min Rain = 0
KPG1 141718Z 23003KT 30/17 A2995 RMK A01 T02990174  RH  047%=      5-min Rain = 0
KPG1 141719Z 24004KT 30/17 A2995 RMK A01 T03000169  RH  045%=      5-min Rain = 0
KPG1 141720Z 24003KT 30/17 A2995 RMK A01 T03000173  RH  046%=      5-min Rain = 0
KPG1 141721Z 23001KT 30/17 A2995 RMK A01 T02990171  RH  046%=      5-min Rain = 0
KPG1 141722Z 29002KT 30/17 A2995 RMK A01 T02970170  RH  046%=      5-min Rain = 0
KPG1 141723Z 28002KT 30/17 A2995 RMK A01 T02960169  RH  046%=      5-min Rain = 0
KPG1 141724Z 16001KT 30/17 A2995 RMK A01 T02950169  RH  047%=      5-min Rain = 0
KPG1 141725Z 19004KT 30/17 A2995 RMK A01 T02950173  RH  048%=      5-min Rain = 0
KPG1 141726Z 18004KT 30/17 A2995 RMK A01 T02950174  RH  048%=      5-min Rain = 0
KPG1 141727Z 18003KT 30/17 A2995 RMK A01 T02960172  RH  047%=      5-min Rain = 0
KPG1 141728Z 15004KT 30/17 A2995 RMK A01 T02960172  RH  047%=      5-min Rain = 0
KPG1 141729Z 15004KT 30/17 A2995 RMK A01 T02960172  RH  047%=      5-min Rain = 0
KPG1 141730Z 20004KT 30/18 A2995 RMK A01 T02980175  RH  048%=      5-min Rain = 0
KPG1 141731Z 21004KT 30/17 A2995 RMK A01 T03010174  RH  046%=      5-min Rain = 0
KPG1 141732Z 19003KT 30/17 A2995 RMK A01 T03040171  RH  045%=      5-min Rain = 0
KPG1 141733Z 20003KT 31/17 A2995 RMK A01 T03050174  RH  046%=      5-min Rain = 0
KPG1 141734Z 20003KT 31/17 A2995 RMK A01 T03070172  RH  044%=      5-min Rain = 0
KPG1 141735Z 20002KT 31/17 A2995 RMK A01 T03070170  RH  044%=      5-min Rain = 0
KPG1 141736Z 17004KT 31/17 A2995 RMK A01 T03060172  RH  044%=      5-min Rain = 0
KPG1 141737Z 19006KT 31/18 A2995 RMK A01 T03100175  RH  045%=      5-min Rain = 0
KPG1 141738Z 20004KT 31/17 A2995 RMK A01 T03120173  RH  044%=      5-min Rain = 0
KPG1 141739Z 20004KT 31/17 A2995 RMK A01 T03090173  RH  044%=      5-min Rain = 0
KPG1 141740Z 19003KT 31/17 A2995 RMK A01 T03080172  RH  044%=      5-min Rain = 0
KPG1 141741Z 26003KT 31/17 A2995 RMK A01 T03060167  RH  043%=      5-min Rain = 0
KPG1 141742Z 24001KT 31/16 A2995 RMK A01 T03070163  RH  042%=      5-min Rain = 0
KPG1 141743Z 17003KT 31/17 A2995 RMK A01 T03100169  RH  043%=      5-min Rain = 0
KPG1 141744Z 14005KT 31/17 A2995 RMK A01 T03120168  RH  042%=      5-min Rain = 0
KPG1 141745Z 14004KT 31/17 A2995 RMK A01 T03110166  RH  042%=      5-min Rain = 0
KPG1 141746Z 19006KT 31/17 A2994 RMK A01 T03110169  RH  043%=      5-min Rain = 0
KPG1 141747Z 22006KT 31/17 A2994 RMK A01 T03120166  RH  041%=      5-min Rain = 0
KPG1 141748Z 21004KT 31/17 A2994 RMK A01 T03090165  RH  042%=      5-min Rain = 0
KPG1 141749Z 21005KT 31/17 A2994 RMK A01 T03070167  RH  043%=      5-min Rain = 0
KPG1 141750Z 18003KT 31/17 A2994 RMK A01 T03050168  RH  044%=      5-min Rain = 0
KPG1 141751Z 20004KT 31/17 A2994 RMK A01 T03050168  RH  044%=      5-min Rain = 0
KPG1 141752Z 21004KT 31/17 A2994 RMK A01 T03060169  RH  044%=      5-min Rain = 0
KPG1 141753Z 22002KT 31/17 A2994 RMK A01 T03050170  RH  044%=      5-min Rain = 0
KPG1 141754Z 20000KT 30/17 A2994 RMK A01 T03040168  RH  044%=      5-min Rain = 0
KPG1 141755Z 30001KT 30/17 A2994 RMK A01 T03030168  RH  044%=      5-min Rain = 0
KPG1 141756Z 16003KT 30/17 A2994 RMK A01 T03030169  RH  044%=      5-min Rain = 0
KPG1 141757Z 17004KT 31/17 A2994 RMK A01 T03050168  RH  044%=      5-min Rain = 0
KPG1 141758Z 18006KT 31/17 A2994 RMK A01 T03060168  RH  044%=      5-min Rain = 0
KPG1 141759Z 20007KT 31/17 A2994 RMK A01 T03050166  RH  043%=      5-min Rain = 0
KPG1 141800Z 19007KT 31/17 A2994 RMK A01 T03060167  RH  043%=      5-min Rain = 0
KPG1 141801Z 19005KT 31/17 A2994 RMK A01 T03080166  RH  042%=      5-min Rain = 0
KPG1 141802Z 17004KT 31/17 A2994 RMK A01 T03080167  RH  043%=      5-min Rain = 0
KPG1 141803Z 20005KT 31/17 A2994 RMK A01 T03110167  RH  042%=      5-min Rain = 0
KPG1 141804Z 19005KT 31/17 A2994 RMK A01 T03120166  RH  042%=      5-min Rain = 0
KPG1 141805Z 20007KT 31/17 A2994 RMK A01 T03120166  RH  042%=      5-min Rain = 0
KPG1 141806Z 19006KT 31/17 A2994 RMK A01 T03110165  RH  041%=      5-min Rain = 0
KPG1 141807Z 18003KT 31/16 A2994 RMK A01 T03100164  RH  042%=      5-min Rain = 0
KPG1 141808Z 14004KT 31/16 A2994 RMK A01 T03110164  RH  041%=      5-min Rain = 0
KPG1 141809Z 20005KT 31/16 A2994 RMK A01 T03140163  RH  040%=      5-min Rain = 0
KPG1 141810Z 20005KT 31/16 A2994 RMK A01 T03140163  RH  040%=      5-min Rain = 0
KPG1 141811Z 21004KT 31/16 A2994 RMK A01 T03120162  RH  040%=      5-min Rain = 0
KPG1 141812Z 20004KT 31/16 A2994 RMK A01 T03130162  RH  040%=      5-min Rain = 0
KPG1 141813Z 21004KT 31/16 A2994 RMK A01 T03140164  RH  041%=      5-min Rain = 0
KPG1 141814Z 22002KT 31/16 A2994 RMK A01 T03120164  RH  041%=      5-min Rain = 0
KPG1 141815Z 20002KT 31/16 A2994 RMK A01 T03110163  RH  041%=      5-min Rain = 0
KPG1 141816Z 19002KT 31/16 A2994 RMK A01 T03110164  RH  041%=      5-min Rain = 0
KPG1 141817Z 27001KT 31/17 A2994 RMK A01 T03110165  RH  041%=      5-min Rain = 0
KPG1 141818Z 31002KT 31/16 A2994 RMK A01 T03120163  RH  041%=      5-min Rain = 0
KPG1 141819Z 33000KT 31/16 A2994 RMK A01 T03130163  RH  041%=      5-min Rain = 0
KPG1 141820Z 31000KT 31/16 A2994 RMK A01 T03130163  RH  041%=      5-min Rain = 0
KPG1 141821Z 35001KT 31/16 A2994 RMK A01 T03140164  RH  040%=      5-min Rain = 0
KPG1 141822Z 01001KT 32/17 A2994 RMK A01 T03160165  RH  040%=      5-min Rain = 0
KPG1 141823Z 20003KT 32/17 A2994 RMK A01 T03200167  RH  040%=      5-min Rain = 0
KPG1 141824Z 22003KT 32/17 A2994 RMK A01 T03240166  RH  039%=      5-min Rain = 0
KPG1 141825Z 25004KT 33/17 A2994 RMK A01 T03260165  RH  038%=      5-min Rain = 0
KPG1 141826Z 24005KT 32/16 A2994 RMK A01 T03240164  RH  038%=      5-min Rain = 0
KPG1 141827Z 25007KT 32/16 A2994 RMK A01 T03230161  RH  038%=      5-min Rain = 0
KPG1 141828Z 27006KT 33/16 A2994 RMK A01 T03250160  RH  037%=      5-min Rain = 0
KPG1 141829Z 25006KT 33/16 A2994 RMK A01 T03260160  RH  037%=      5-min Rain = 0
KPG1 141830Z 29006KT 33/16 A2994 RMK A01 T03290157  RH  036%=      5-min Rain = 0
KPG1 141831Z 23006KT 33/16 A2994 RMK A01 T03280157  RH  036%=      5-min Rain = 0
KPG1 141832Z 22007KT 33/16 A2994 RMK A01 T03280155  RH  035%=      5-min Rain = 0
KPG1 141833Z 23006KT 32/16 A2993 RMK A01 T03240155  RH  036%=      5-min Rain = 0
KPG1 141834Z 24007KT 32/15 A2993 RMK A01 T03240154  RH  036%=      5-min Rain = 0
KPG1 141835Z 24006KT 33/15 A2993 RMK A01 T03250152  RH  035%=      5-min Rain = 0
KPG1 141836Z 25006KT 32/15 A2993 RMK A01 T03240154  RH  036%=      5-min Rain = 0
KPG1 141837Z 23005KT 32/15 A2993 RMK A01 T03220151  RH  036%=      5-min Rain = 0
KPG1 141838Z 22003KT 32/15 A2993 RMK A01 T03210151  RH  036%=      5-min Rain = 0
KPG1 141839Z 18002KT 32/15 A2993 RMK A01 T03210150  RH  036%=      5-min Rain = 0
KPG1 141840Z 31001KT 32/15 A2993 RMK A01 T03230153  RH  036%=      5-min Rain = 0
KPG1 141841Z 31004KT 33/15 A2993 RMK A01 T03270154  RH  035%=      5-min Rain = 0
KPG1 141842Z 32005KT 33/15 A2993 RMK A01 T03280151  RH  034%=      5-min Rain = 0
KPG1 141843Z 33002KT 33/15 A2993 RMK A01 T03250148  RH  035%=      5-min Rain = 0
KPG1 141844Z 35002KT 32/15 A2993 RMK A01 T03240147  RH  034%=      5-min Rain = 0
KPG1 141845Z 34001KT 33/15 A2993 RMK A01 T03250147  RH  034%=      5-min Rain = 0
KPG1 141846Z 32001KT 33/15 A2993 RMK A01 T03250148  RH  034%=      5-min Rain = 0
KPG1 141847Z 20002KT 33/15 A2993 RMK A01 T03270152  RH  035%=      5-min Rain = 0
KPG1 141848Z 19008KT 33/15 A2993 RMK A01 T03320151  RH  034%=      5-min Rain = 0
KPG1 141849Z 21007KT 33/15 A2993 RMK A01 T03320152  RH  034%=      5-min Rain = 0
KPG1 141850Z 19006KT 33/15 A2993 RMK A01 T03310152  RH  034%=      5-min Rain = 0
KPG1 141851Z 17006KT 33/15 A2993 RMK A01 T03300152  RH  034%=      5-min Rain = 0
KPG1 141852Z 19004KT 33/15 A2993 RMK A01 T03270151  RH  035%=      5-min Rain = 0
KPG1 141853Z 20004KT 32/15 A2993 RMK A01 T03240150  RH  035%=      5-min Rain = 0
KPG1 141854Z 22003KT 32/15 A2993 RMK A01 T03220151  RH  036%=      5-min Rain = 0
KPG1 141855Z 20003KT 32/15 A2993 RMK A01 T03220150  RH  035%=      5-min Rain = 0
KPG1 141856Z 19006KT 32/15 A2993 RMK A01 T03230151  RH  035%=      5-min Rain = 0
KPG1 141857Z 17004KT 32/15 A2993 RMK A01 T03230152  RH  036%=      5-min Rain = 0
KPG1 141858Z 17005KT 33/15 A2993 RMK A01 T03260152  RH  035%=      5-min Rain = 0
KPG1 141859Z 18002KT 33/15 A2993 RMK A01 T03280152  RH  035%=      5-min Rain = 0
KPG1 141900Z 14000KT 33/15 A2993 RMK A01 T03260152  RH  035%=      5-min Rain = 0
KPG1 141901Z 29001KT 33/15 A2992 RMK A01 T03260153  RH  035%=      5-min Rain = 0
KPG1 141902Z 28001KT 33/15 A2992 RMK A01 T03290154  RH  035%=      5-min Rain = 0
KPG1 141903Z 28002KT 33/15 A2992 RMK A01 T03310152  RH  034%=      5-min Rain = 0
KPG1 141904Z 19002KT 33/15 A2992 RMK A01 T03310153  RH  034%=      5-min Rain = 0
KPG1 141905Z 22005KT 33/15 A2992 RMK A01 T03310154  RH  035%=      5-min Rain = 0
KPG1 141906Z 19009KT 33/15 A2992 RMK A01 T03330152  RH  034%=      5-min Rain = 0
KPG1 141907Z 17008KT 33/15 A2992 RMK A01 T03320151  RH  034%=      5-min Rain = 0
KPG1 141908Z 15008KT 33/15 A2992 RMK A01 T03320151  RH  034%=      5-min Rain = 0
KPG1 141909Z 14006KT 33/15 A2992 RMK A01 T03300152  RH  034%=      5-min Rain = 0
KPG1 141910Z 15005KT 33/15 A2992 RMK A01 T03280152  RH  035%=      5-min Rain = 0
KPG1 141911Z 17003KT 33/15 A2992 RMK A01 T03270152  RH  035%=      5-min Rain = 0
KPG1 141912Z 19005KT 33/15 A2992 RMK A01 T03280153  RH  035%=      5-min Rain = 0
KPG1 141913Z 18008KT 33/16 A2992 RMK A01 T03310158  RH  035%=      5-min Rain = 0
KPG1 141914Z 14007KT 33/16 A2992 RMK A01 T03340158  RH  035%=      5-min Rain = 0
KPG1 141915Z 13006KT 33/16 A2992 RMK A01 T03340158  RH  035%=      5-min Rain = 0
KPG1 141916Z 14005KT 33/16 A2992 RMK A01 T03320159  RH  035%=      5-min Rain = 0
KPG1 141917Z 14004KT 33/16 A2992 RMK A01 T03310159  RH  036%=      5-min Rain = 0
KPG1 141918Z 14006KT 33/16 A2992 RMK A01 T03320159  RH  035%=      5-min Rain = 0
KPG1 141919Z 18004KT 33/16 A2992 RMK A01 T03340159  RH  035%=      5-min Rain = 0
KPG1 141920Z 22003KT 33/16 A2991 RMK A01 T03320159  RH  036%=      5-min Rain = 0
KPG1 141921Z 22007KT 33/16 A2991 RMK A01 T03300161  RH  036%=      5-min Rain = 0
KPG1 141922Z 23008KT 33/16 A2991 RMK A01 T03310162  RH  036%=      5-min Rain = 0
KPG1 141923Z 23008KT 33/16 A2991 RMK A01 T03320161  RH  036%=      5-min Rain = 0
KPG1 141924Z 25006KT 33/16 A2991 RMK A01 T03330163  RH  036%=      5-min Rain = 0
KPG1 141925Z 23010KT 33/16 A2991 RMK A01 T03340163  RH  036%=      5-min Rain = 0
KPG1 141926Z 23007KT 33/16 A2991 RMK A01 T03320159  RH  036%=      5-min Rain = 0
KPG1 141927Z 23003KT 33/16 A2991 RMK A01 T03260160  RH  037%=      5-min Rain = 0
KPG1 141928Z 25004KT 33/16 A2991 RMK A01 T03250160  RH  037%=      5-min Rain = 0
KPG1 141929Z 25004KT 33/16 A2991 RMK A01 T03260160  RH  037%=      5-min Rain = 0
KPG1 141930Z 24008KT 33/16 A2991 RMK A01 T03260162  RH  037%=      5-min Rain = 0
KPG1 141931Z 26006KT 33/16 A2991 RMK A01 T03260163  RH  038%=      5-min Rain = 0
KPG1 141932Z 26006KT 33/16 A2991 RMK A01 T03260163  RH  038%=      5-min Rain = 0
KPG1 141933Z 26007KT 33/16 A2991 RMK A01 T03280163  RH  037%=      5-min Rain = 0
KPG1 141934Z 26006KT 33/16 A2991 RMK A01 T03280163  RH  037%=      5-min Rain = 0
KPG1 141935Z 24006KT 33/16 A2991 RMK A01 T03290163  RH  037%=      5-min Rain = 0
KPG1 141936Z 24010KT 33/16 A2991 RMK A01 T03300164  RH  037%=      5-min Rain = 0
KPG1 141937Z 24008KT 33/16 A2991 RMK A01 T03280163  RH  037%=      5-min Rain = 0
KPG1 141938Z 25007KT 33/16 A2991 RMK A01 T03260164  RH  038%=      5-min Rain = 0
KPG1 141939Z 24007KT 32/16 A2991 RMK A01 T03240163  RH  038%=      5-min Rain = 0
KPG1 141940Z 23007KT 33/16 A2991 RMK A01 T03250163  RH  038%=      5-min Rain = 0
KPG1 141941Z 24006KT 33/16 A2991 RMK A01 T03260163  RH  038%=      5-min Rain = 0
KPG1 141942Z 23004KT 33/16 A2991 RMK A01 T03270163  RH  038%=      5-min Rain = 0
KPG1 141943Z 25003KT 33/16 A2991 RMK A01 T03250164  RH  038%=      5-min Rain = 0
KPG1 141944Z 25004KT 33/16 A2991 RMK A01 T03250162  RH  038%=      5-min Rain = 0
KPG1 141945Z 26003KT 32/16 A2991 RMK A01 T03240163  RH  038%=      5-min Rain = 0
KPG1 141946Z 27003KT 32/16 A2991 RMK A01 T03230162  RH  038%=      5-min Rain = 0
KPG1 141947Z 28004KT 32/16 A299 RMK A01 T03240163  RH  038%=      5-min Rain = 0
KPG1 141948Z 29005KT 33/16 A299 RMK A01 T03260163  RH  038%=      5-min Rain = 0
KPG1 141949Z 28006KT 32/16 A299 RMK A01 T03240164  RH  038%=      5-min Rain = 0
KPG1 141950Z 28007KT 33/16 A299 RMK A01 T03250164  RH  038%=      5-min Rain = 0
KPG1 141951Z 28006KT 33/16 A299 RMK A01 T03260164  RH  038%=      5-min Rain = 0
KPG1 141952Z 26007KT 33/17 A299 RMK A01 T03250165  RH  038%=      5-min Rain = 0
KPG1 141953Z 27006KT 33/16 A299 RMK A01 T03250164  RH  038%=      5-min Rain = 0
KPG1 141954Z 27004KT 32/16 A299 RMK A01 T03240164  RH  038%=      5-min Rain = 0
KPG1 141955Z 24004KT 32/16 A299 RMK A01 T03230164  RH  039%=      5-min Rain = 0
KPG1 141956Z 20002KT 32/16 A299 RMK A01 T03230164  RH  039%=      5-min Rain = 0
KPG1 141957Z 31003KT 32/17 A299 RMK A01 T03240165  RH  039%=      5-min Rain = 0
KPG1 141958Z 30004KT 33/16 A299 RMK A01 T03250164  RH  038%=      5-min Rain = 0
KPG1 141959Z 32002KT 32/16 A299 RMK A01 T03230164  RH  039%=      5-min Rain = 0
KPG1 142000Z 32002KT 32/17 A299 RMK A01 T03220166  RH  039%=      5-min Rain = 0
KPG1 142001Z 31004KT 33/17 A299 RMK A01 T03250165  RH  038%=      5-min Rain = 0
KPG1 142002Z 32005KT 33/16 A299 RMK A01 T03250164  RH  038%=      5-min Rain = 0
KPG1 142003Z 30002KT 32/16 A299 RMK A01 T03230164  RH  038%=      5-min Rain = 0
KPG1 142004Z 32001KT 32/16 A2989 RMK A01 T03220164  RH  039%=      5-min Rain = 0
KPG1 142005Z 30005KT 32/17 A2989 RMK A01 T03240165  RH  039%=      5-min Rain = 0
KPG1 142006Z 31007KT 33/16 A2989 RMK A01 T03260164  RH  038%=      5-min Rain = 0
KPG1 142007Z 31007KT 33/16 A2989 RMK A01 T03250164  RH  038%=      5-min Rain = 0
KPG1 142008Z 31005KT 32/16 A2989 RMK A01 T03240164  RH  038%=      5-min Rain = 0
KPG1 142009Z 31005KT 32/16 A2989 RMK A01 T03230164  RH  038%=      5-min Rain = 0
KPG1 142010Z 31005KT 32/16 A2989 RMK A01 T03230164  RH  038%=      5-min Rain = 0
KPG1 142011Z 31005KT 32/16 A2989 RMK A01 T03230164  RH  038%=      5-min Rain = 0
KPG1 142012Z 33005KT 33/16 A2989 RMK A01 T03250164  RH  038%=      5-min Rain = 0
KPG1 142013Z 32005KT 33/16 A2989 RMK A01 T03260164  RH  038%=      5-min Rain = 0
KPG1 142014Z 31006KT 33/16 A2989 RMK A01 T03260164  RH  038%=      5-min Rain = 0
KPG1 142015Z 31006KT 33/16 A2989 RMK A01 T03250163  RH  038%=      5-min Rain = 0
KPG1 142016Z 32005KT 32/16 A2989 RMK A01 T03240164  RH  038%=      5-min Rain = 0
KPG1 142017Z 33005KT 32/16 A2989 RMK A01 T03240163  RH  038%=      5-min Rain = 0
KPG1 142018Z 34004KT 32/16 A2989 RMK A01 T03240163  RH  038%=      5-min Rain = 0
KPG1 142019Z 06004KT 33/16 A2989 RMK A01 T03250163  RH  038%=      5-min Rain = 0
KPG1 142020Z 06004KT 33/16 A2988 RMK A01 T03270161  RH  037%=      5-min Rain = 0
KPG1 142021Z 06004KT 33/16 A2988 RMK A01 T03270161  RH  037%=      5-min Rain = 0
KPG1 142022Z 06002KT 33/16 A2988 RMK A01 T03280162  RH  037%=      5-min Rain = 0
KPG1 142023Z 05003KT 33/16 A2988 RMK A01 T03290162  RH  037%=      5-min Rain = 0
KPG1 142024Z 06004KT 33/16 A2988 RMK A01 T03290162  RH  037%=      5-min Rain = 0
KPG1 142025Z 02004KT 33/16 A2988 RMK A01 T03290162  RH  037%=      5-min Rain = 0
KPG1 142026Z 02003KT 33/16 A2988 RMK A01 T03310162  RH  036%=      5-min Rain = 0
KPG1 142027Z 04002KT 33/16 A2988 RMK A01 T03300162  RH  037%=      5-min Rain = 0
KPG1 142028Z 03003KT 33/16 A2988 RMK A01 T03300163  RH  037%=      5-min Rain = 0
KPG1 142029Z 32003KT 33/17 A2988 RMK A01 T03330165  RH  037%=      5-min Rain = 0
KPG1 142030Z 30005KT 34/16 A2988 RMK A01 T03370164  RH  035%=      5-min Rain = 0
KPG1 142031Z 30007KT 34/16 A2988 RMK A01 T03370163  RH  035%=      5-min Rain = 0
KPG1 142032Z 32004KT 34/16 A2988 RMK A01 T03350161  RH  035%=      5-min Rain = 0
KPG1 142033Z 35002KT 34/16 A2987 RMK A01 T03350162  RH  035%=      5-min Rain = 0
KPG1 142034Z 33003KT 34/16 A2987 RMK A01 T03360161  RH  035%=      5-min Rain = 0
KPG1 142035Z 33003KT 34/16 A2987 RMK A01 T03360163  RH  036%=      5-min Rain = 0
KPG1 142036Z 28004KT 34/17 A2987 RMK A01 T03380165  RH  036%=      5-min Rain = 0
KPG1 142037Z 28003KT 34/17 A2987 RMK A01 T03410165  RH  035%=      5-min Rain = 0
KPG1 142038Z 30005KT 34/17 A2987 RMK A01 T03440166  RH  035%=      5-min Rain = 0
KPG1 142039Z 30007KT 34/16 A2987 RMK A01 T03440163  RH  034%=      5-min Rain = 0
KPG1 142040Z 31007KT 34/16 A2987 RMK A01 T03410164  RH  035%=      5-min Rain = 0
KPG1 142041Z 33007KT 34/16 A2987 RMK A01 T03410162  RH  034%=      5-min Rain = 0
KPG1 142042Z 33006KT 34/16 A2987 RMK A01 T03410161  RH  034%=      5-min Rain = 0
KPG1 142043Z 33003KT 34/16 A2987 RMK A01 T03380161  RH  035%=      5-min Rain = 0
KPG1 142044Z 36004KT 34/16 A2987 RMK A01 T03380160  RH  034%=      5-min Rain = 0
KPG1 142045Z 01004KT 34/16 A2987 RMK A01 T03380159  RH  034%=      5-min Rain = 0
KPG1 142046Z 03003KT 34/16 A2987 RMK A01 T03380160  RH  035%=      5-min Rain = 0
KPG1 142047Z 03004KT 34/16 A2987 RMK A01 T03410160  RH  034%=      5-min Rain = 0
KPG1 142048Z 08004KT 34/16 A2987 RMK A01 T03380157  RH  034%=      5-min Rain = 0
KPG1 142049Z 08001KT 34/16 A2986 RMK A01 T03350158  RH  035%=      5-min Rain = 0
KPG1 142050Z 27002KT 34/16 A2986 RMK A01 T03360159  RH  035%=      5-min Rain = 0
KPG1 142051Z 28004KT 34/16 A2986 RMK A01 T03390160  RH  034%=      5-min Rain = 0
KPG1 142052Z 29005KT 34/16 A2986 RMK A01 T03430161  RH  034%=      5-min Rain = 0
KPG1 142053Z 31004KT 35/16 A2986 RMK A01 T03460160  RH  033%=      5-min Rain = 0
KPG1 142054Z 05001KT 35/16 A2986 RMK A01 T03450159  RH  033%=      5-min Rain = 0
KPG1 142055Z 35001KT 35/16 A2986 RMK A01 T03450160  RH  033%=      5-min Rain = 0
KPG1 142056Z 30003KT 35/16 A2986 RMK A01 T03460160  RH  033%=      5-min Rain = 0
KPG1 142057Z 31005KT 35/16 A2986 RMK A01 T03470161  RH  033%=      5-min Rain = 0
KPG1 142058Z 28008KT 35/16 A2986 RMK A01 T03470161  RH  033%=      5-min Rain = 0
KPG1 142059Z 28006KT 35/16 A2986 RMK A01 T03450161  RH  033%=      5-min Rain = 0
KPG1 142100Z 30002KT 34/16 A2986 RMK A01 T03440160  RH  033%=      5-min Rain = 0
KPG1 142101Z 33006KT 34/16 A2986 RMK A01 T03440160  RH  033%=      5-min Rain = 0
KPG1 142102Z 31007KT 34/16 A2986 RMK A01 T03440160  RH  033%=      5-min Rain = 0
KPG1 142103Z 28009KT 34/16 A2986 RMK A01 T03440160  RH  033%=      5-min Rain = 0
KPG1 142104Z 28008KT 35/16 A2986 RMK A01 T03450160  RH  033%=      5-min Rain = 0
KPG1 142105Z 30006KT 35/16 A2986 RMK A01 T03460160  RH  033%=      5-min Rain = 0
KPG1 142106Z 30007KT 35/16 A2986 RMK A01 T03450159  RH  033%=      5-min Rain = 0
KPG1 142107Z 31005KT 34/16 A2986 RMK A01 T03440160  RH  033%=      5-min Rain = 0
KPG1 142108Z 26008KT 34/16 A2986 RMK A01 T03440160  RH  033%=      5-min Rain = 0
KPG1 142109Z 27006KT 34/16 A2986 RMK A01 T03440160  RH  033%=      5-min Rain = 0
KPG1 142110Z 28006KT 35/16 A2986 RMK A01 T03450160  RH  033%=      5-min Rain = 0
KPG1 142111Z 28004KT 34/16 A2986 RMK A01 T03430160  RH  034%=      5-min Rain = 0
KPG1 142112Z 30005KT 34/16 A2986 RMK A01 T03410159  RH  034%=      5-min Rain = 0
KPG1 142113Z 27006KT 34/16 A2986 RMK A01 T03400160  RH  034%=      5-min Rain = 0
KPG1 142114Z 25008KT 34/16 A2986 RMK A01 T03420160  RH  034%=      5-min Rain = 0
KPG1 142115Z 26007KT 34/16 A2985 RMK A01 T03420160  RH  034%=      5-min Rain = 0
KPG1 142116Z 25006KT 34/16 A2985 RMK A01 T03400160  RH  034%=      5-min Rain = 0
KPG1 142117Z 25004KT 34/16 A2985 RMK A01 T03400160  RH  034%=      5-min Rain = 0
KPG1 142118Z 28005KT 34/16 A2985 RMK A01 T03400160  RH  034%=      5-min Rain = 0
KPG1 142119Z 26002KT 34/16 A2985 RMK A01 T03420158  RH  033%=      5-min Rain = 0
KPG1 142120Z 28002KT 34/16 A2985 RMK A01 T03410158  RH  034%=      5-min Rain = 0
KPG1 142121Z 31004KT 34/16 A2985 RMK A01 T03420158  RH  033%=      5-min Rain = 0
KPG1 142122Z 31003KT 34/16 A2985 RMK A01 T03420158  RH  033%=      5-min Rain = 0
KPG1 142123Z 22002KT 34/16 A2985 RMK A01 T03420158  RH  033%=      5-min Rain = 0
KPG1 142124Z 35004KT 35/16 A2985 RMK A01 T03460157  RH  033%=      5-min Rain = 0
KPG1 142125Z 20003KT 35/16 A2985 RMK A01 T03470157  RH  032%=      5-min Rain = 0
KPG1 142126Z 17003KT 35/16 A2985 RMK A01 T03480159  RH  032%=      5-min Rain = 0
KPG1 142127Z 17004KT 35/16 A2985 RMK A01 T03490156  RH  032%=      5-min Rain = 0
KPG1 142128Z 15002KT 35/16 A2985 RMK A01 T03490156  RH  032%=      5-min Rain = 0
KPG1 142129Z 13003KT 35/16 A2985 RMK A01 T03490156  RH  032%=      5-min Rain = 0
KPG1 142130Z 20003KT 35/16 A2985 RMK A01 T03480156  RH  032%=      5-min Rain = 0
KPG1 142131Z 24005KT 35/16 A2985 RMK A01 T03500160  RH  032%=      5-min Rain = 0
KPG1 142132Z 25006KT 35/16 A2985 RMK A01 T03490160  RH  032%=      5-min Rain = 0
KPG1 142133Z 25005KT 35/16 A2985 RMK A01 T03470159  RH  033%=      5-min Rain = 0
KPG1 142134Z 24004KT 35/16 A2985 RMK A01 T03460157  RH  032%=      5-min Rain = 0
KPG1 142135Z 26003KT 34/16 A2985 RMK A01 T03440156  RH  032%=      5-min Rain = 0
KPG1 142136Z 29004KT 34/16 A2985 RMK A01 T03440156  RH  033%=      5-min Rain = 0
KPG1 142137Z 27005KT 34/16 A2985 RMK A01 T03430156  RH  033%=      5-min Rain = 0
KPG1 142138Z 26005KT 34/15 A2985 RMK A01 T03430153  RH  032%=      5-min Rain = 0
KPG1 142139Z 23003KT 34/15 A2985 RMK A01 T03420151  RH  032%=      5-min Rain = 0
KPG1 142140Z 26004KT 34/15 A2985 RMK A01 T03400152  RH  032%=      5-min Rain = 0
KPG1 142141Z 29004KT 34/15 A2985 RMK A01 T03400151  RH  032%=      5-min Rain = 0
KPG1 142142Z 32002KT 34/15 A2985 RMK A01 T03400152  RH  032%=      5-min Rain = 0
KPG1 142143Z 31002KT 34/15 A2985 RMK A01 T03410152  RH  032%=      5-min Rain = 0
KPG1 142144Z 33001KT 34/15 A2985 RMK A01 T03410153  RH  032%=      5-min Rain = 0
KPG1 142145Z 33001KT 34/15 A2985 RMK A01 T03430154  RH  032%=      5-min Rain = 0
KPG1 142146Z 35001KT 34/15 A2985 RMK A01 T03440153  RH  032%=      5-min Rain = 0
KPG1 142147Z 15002KT 35/15 A2985 RMK A01 T03450153  RH  032%=      5-min Rain = 0
KPG1 142148Z 16004KT 35/15 A2985 RMK A01 T03460152  RH  031%=      5-min Rain = 0
KPG1 142149Z 17003KT 35/15 A2985 RMK A01 T03480152  RH  031%=      5-min Rain = 0
KPG1 142150Z 17003KT 35/15 A2985 RMK A01 T03490152  RH  031%=      5-min Rain = 0
KPG1 142151Z 18003KT 35/15 A2985 RMK A01 T03490153  RH  031%=      5-min Rain = 0
KPG1 142152Z 16002KT 35/15 A2984 RMK A01 T03490153  RH  031%=      5-min Rain = 0
KPG1 142153Z 09002KT 35/15 A2984 RMK A01 T03480153  RH  031%=      5-min Rain = 0
KPG1 142154Z 07003KT 35/15 A2984 RMK A01 T03470152  RH  031%=      5-min Rain = 0
KPG1 142155Z 06002KT 35/15 A2984 RMK A01 T03450152  RH  032%=      5-min Rain = 0
KPG1 142156Z 09001KT 35/15 A2984 RMK A01 T03450153  RH  032%=      5-min Rain = 0
KPG1 142157Z 13001KT 35/15 A2984 RMK A01 T03470152  RH  031%=      5-min Rain = 0
KPG1 142158Z 35002KT 35/15 A2984 RMK A01 T03470151  RH  031%=      5-min Rain = 0
KPG1 142159Z 31004KT 35/15 A2984 RMK A01 T03470153  RH  031%=      5-min Rain = 0
KPG1 142200Z 29006KT 35/16 A2984 RMK A01 T03480155  RH  032%=      5-min Rain = 0
KPG1 142201Z 28006KT 35/16 A2984 RMK A01 T03460155  RH  032%=      5-min Rain = 0
KPG1 142202Z 28007KT 35/16 A2984 RMK A01 T03450155  RH  032%=      5-min Rain = 0
KPG1 142203Z 28007KT 35/16 A2984 RMK A01 T03450155  RH  032%=      5-min Rain = 0
KPG1 142204Z 26009KT 34/15 A2984 RMK A01 T03430154  RH  032%=      5-min Rain = 0
KPG1 142205Z 28006KT 34/15 A2984 RMK A01 T03420150  RH  032%=      5-min Rain = 0
KPG1 142206Z 29004KT 34/15 A2984 RMK A01 T03420149  RH  032%=      5-min Rain = 0
KPG1 142207Z 27002KT 34/15 A2984 RMK A01 T03420148  RH  031%=      5-min Rain = 0
KPG1 142208Z 26004KT 34/15 A2984 RMK A01 T03420149  RH  032%=      5-min Rain = 0
KPG1 142209Z 27004KT 34/15 A2984 RMK A01 T03420151  RH  032%=      5-min Rain = 0
KPG1 142210Z 26002KT 34/15 A2984 RMK A01 T03410152  RH  032%=      5-min Rain = 0
KPG1 142211Z 29003KT 34/15 A2984 RMK A01 T03410151  RH  032%=      5-min Rain = 0
KPG1 142212Z 29002KT 34/15 A2984 RMK A01 T03410150  RH  032%=      5-min Rain = 0
KPG1 142213Z 27003KT 34/15 A2984 RMK A01 T03410151  RH  032%=      5-min Rain = 0
KPG1 142214Z 26005KT 34/15 A2984 RMK A01 T03430151  RH  032%=      5-min Rain = 0
KPG1 142215Z 26004KT 34/15 A2984 RMK A01 T03440149  RH  031%=      5-min Rain = 0
KPG1 142216Z 29004KT 35/15 A2984 RMK A01 T03450150  RH  031%=      5-min Rain = 0
KPG1 142217Z 31003KT 35/15 A2984 RMK A01 T03470150  RH  031%=      5-min Rain = 0
KPG1 142218Z 31003KT 35/15 A2984 RMK A01 T03480148  RH  030%=      5-min Rain = 0
KPG1 142219Z 28002KT 35/15 A2984 RMK A01 T03490147  RH  030%=      5-min Rain = 0
KPG1 142220Z 25003KT 35/15 A2984 RMK A01 T03500148  RH  030%=      5-min Rain = 0
KPG1 142221Z 22004KT 35/15 A2984 RMK A01 T03510148  RH  030%=      5-min Rain = 0
KPG1 142222Z 19002KT 35/15 A2984 RMK A01 T03500147  RH  030%=      5-min Rain = 0
KPG1 142223Z 26001KT 35/15 A2984 RMK A01 T03470147  RH  030%=      5-min Rain = 0
KPG1 142224Z 14001KT 35/15 A2984 RMK A01 T03470147  RH  030%=      5-min Rain = 0
KPG1 142225Z 20002KT 35/15 A2984 RMK A01 T03490147  RH  030%=      5-min Rain = 0
KPG1 142226Z 23003KT 35/15 A2984 RMK A01 T03500149  RH  030%=      5-min Rain = 0
KPG1 142227Z 24003KT 35/15 A2983 RMK A01 T03500149  RH  030%=      5-min Rain = 0
KPG1 142228Z 24004KT 35/15 A2983 RMK A01 T03500146  RH  029%=      5-min Rain = 0
KPG1 142229Z 24003KT 35/14 A2983 RMK A01 T03510141  RH  028%=      5-min Rain = 0
KPG1 142230Z 24002KT 35/14 A2983 RMK A01 T03530139  RH  028%=      5-min Rain = 0
KPG1 142231Z 31001KT 35/14 A2983 RMK A01 T03530140  RH  028%=      5-min Rain = 0
KPG1 142232Z 31003KT 35/14 A2983 RMK A01 T03530141  RH  028%=      5-min Rain = 0
KPG1 142233Z 28003KT 35/14 A2983 RMK A01 T03540143  RH  028%=      5-min Rain = 0
KPG1 142234Z 29003KT 36/14 A2983 RMK A01 T03550143  RH  028%=      5-min Rain = 0
KPG1 142235Z 30003KT 36/14 A2983 RMK A01 T03560144  RH  028%=      5-min Rain = 0
KPG1 142236Z 30001KT 36/14 A2983 RMK A01 T03580143  RH  028%=      5-min Rain = 0
KPG1 142237Z 32002KT 36/14 A2983 RMK A01 T03590143  RH  028%=      5-min Rain = 0
KPG1 142238Z 35002KT 36/14 A2983 RMK A01 T03590142  RH  027%=      5-min Rain = 0
KPG1 142239Z 06004KT 36/15 A2983 RMK A01 T03570147  RH  029%=      5-min Rain = 0
KPG1 142240Z 08008KT 36/15 A2983 RMK A01 T03570153  RH  030%=      5-min Rain = 0
KPG1 142241Z 09009KT 36/15 A2982 RMK A01 T03550153  RH  030%=      5-min Rain = 0
KPG1 142242Z 08007KT 35/15 A2982 RMK A01 T03510153  RH  031%=      5-min Rain = 0
KPG1 142243Z 09006KT 35/15 A2982 RMK A01 T03490154  RH  031%=      5-min Rain = 0
KPG1 142244Z 10005KT 35/15 A2982 RMK A01 T03500153  RH  031%=      5-min Rain = 0
KPG1 142245Z 07003KT 35/15 A2982 RMK A01 T03500153  RH  031%=      5-min Rain = 0
KPG1 142246Z 07005KT 35/15 A2982 RMK A01 T03500153  RH  031%=      5-min Rain = 0
KPG1 142247Z 08007KT 35/15 A2982 RMK A01 T03480152  RH  031%=      5-min Rain = 0
KPG1 142248Z 07009KT 35/15 A2982 RMK A01 T03480151  RH  031%=      5-min Rain = 0
KPG1 142249Z 08006KT 35/15 A2982 RMK A01 T03490150  RH  030%=      5-min Rain = 0
KPG1 142250Z 08010KT 35/15 A2982 RMK A01 T03490149  RH  030%=      5-min Rain = 0
KPG1 142251Z 07010KT 35/15 A2982 RMK A01 T03500150  RH  030%=      5-min Rain = 0
KPG1 142252Z 07008KT 35/15 A2982 RMK A01 T03490148  RH  030%=      5-min Rain = 0
KPG1 142253Z 10008KT 35/15 A2982 RMK A01 T03480149  RH  030%=      5-min Rain = 0
KPG1 142254Z 09008KT 35/15 A2982 RMK A01 T03480150  RH  031%=      5-min Rain = 0
KPG1 142255Z 08007KT 35/15 A2982 RMK A01 T03470151  RH  031%=      5-min Rain = 0
KPG1 142256Z 07007KT 35/15 A2982 RMK A01 T03460149  RH  031%=      5-min Rain = 0
KPG1 142257Z 07006KT 35/15 A2982 RMK A01 T03460149  RH  031%=      5-min Rain = 0
KPG1 142258Z 06006KT 35/15 A2982 RMK A01 T03460150  RH  031%=      5-min Rain = 0
KPG1 142259Z 04007KT 35/15 A2982 RMK A01 T03460151  RH  031%=      5-min Rain = 0
KPG1 142300Z 05006KT 35/15 A2982 RMK A01 T03460151  RH  031%=      5-min Rain = 0
KPG1 142301Z 05005KT 35/15 A2982 RMK A01 T03450151  RH  031%=      5-min Rain = 0
KPG1 142302Z 06007KT 35/15 A2982 RMK A01 T03480151  RH  031%=      5-min Rain = 0
KPG1 142303Z 06007KT 35/15 A2982 RMK A01 T03480149  RH  030%=      5-min Rain = 0
KPG1 142304Z 06006KT 35/15 A2982 RMK A01 T03470149  RH  031%=      5-min Rain = 0
KPG1 142305Z 06007KT 35/15 A2982 RMK A01 T03470149  RH  031%=      5-min Rain = 0
KPG1 142306Z 04006KT 35/15 A2982 RMK A01 T03470149  RH  031%=      5-min Rain = 0
KPG1 142307Z 03005KT 35/15 A2982 RMK A01 T03470149  RH  031%=      5-min Rain = 0
KPG1 142308Z 05005KT 35/15 A2982 RMK A01 T03480149  RH  030%=      5-min Rain = 0
KPG1 142309Z 04006KT 35/15 A2982 RMK A01 T03470148  RH  030%=      5-min Rain = 0
KPG1 142310Z 02006KT 35/15 A2982 RMK A01 T03460148  RH  031%=      5-min Rain = 0
KPG1 142311Z 04005KT 35/15 A2982 RMK A01 T03450148  RH  031%=      5-min Rain = 0
KPG1 142312Z 05006KT 34/15 A2982 RMK A01 T03440149  RH  031%=      5-min Rain = 0
KPG1 142313Z 05005KT 35/15 A2982 RMK A01 T03450152  RH  031%=      5-min Rain = 0
KPG1 142314Z 04005KT 35/15 A2982 RMK A01 T03460153  RH  032%=      5-min Rain = 0
KPG1 142315Z 04008KT 35/15 A2982 RMK A01 T03480153  RH  031%=      5-min Rain = 0
KPG1 142316Z 05007KT 35/15 A2982 RMK A01 T03480153  RH  031%=      5-min Rain = 0
KPG1 142317Z 05007KT 35/15 A2982 RMK A01 T03490152  RH  031%=      5-min Rain = 0
KPG1 142318Z 01006KT 35/15 A2982 RMK A01 T03480151  RH  031%=      5-min Rain = 0
KPG1 142319Z 00007KT 35/15 A2982 RMK A01 T03460151  RH  031%=      5-min Rain = 0
KPG1 142320Z 02009KT 35/15 A2982 RMK A01 T03460151  RH  031%=      5-min Rain = 0
KPG1 142321Z 01009KT 35/15 A2982 RMK A01 T03460151  RH  031%=      5-min Rain = 0
KPG1 142322Z 00013KT 35/16 A2983 RMK A01 T03450156  RH  032%=      5-min Rain = 0
KPG1 142323Z 00013KT 34/16 A2983 RMK A01 T03400158  RH  034%=      5-min Rain = 0
KPG1 142324Z 01011KT 34/16 A2983 RMK A01 T03350159  RH  035%=      5-min Rain = 0
KPG1 142325Z 01010KT 33/16 A2982 RMK A01 T03330161  RH  036%=      5-min Rain = 0
KPG1 142326Z 01009KT 33/16 A2982 RMK A01 T03320161  RH  036%=      5-min Rain = 0
KPG1 142327Z 00011KT 33/16 A2982 RMK A01 T03310162  RH  036%=      5-min Rain = 0
KPG1 142328Z 00012KT 33/16 A2982 RMK A01 T03310161  RH  036%=      5-min Rain = 0
KPG1 142329Z 00010KT 33/16 A2982 RMK A01 T03310161  RH  036%=      5-min Rain = 0
KPG1 142330Z 35012KT 33/16 A2982 RMK A01 T03320160  RH  036%=      5-min Rain = 0
KPG1 142331Z 35010KT 33/16 A2982 RMK A01 T03320160  RH  036%=      5-min Rain = 0
KPG1 142332Z 35010KT 33/16 A2982 RMK A01 T03320159  RH  036%=      5-min Rain = 0
KPG1 142333Z 35010KT 33/16 A2982 RMK A01 T03320160  RH  036%=      5-min Rain = 0
KPG1 142334Z 34010KT 33/16 A2982 RMK A01 T03320159  RH  035%=      5-min Rain = 0
KPG1 142335Z 34011KT 33/16 A2982 RMK A01 T03330159  RH  035%=      5-min Rain = 0
KPG1 142336Z 33012KT 33/16 A2982 RMK A01 T03330159  RH  035%=      5-min Rain = 0
KPG1 142337Z 34009KT 33/16 A2982 RMK A01 T03330160  RH  036%=      5-min Rain = 0
KPG1 142338Z 34011KT 33/16 A2982 RMK A01 T03320160  RH  036%=      5-min Rain = 0
KPG1 142339Z 35010KT 33/16 A2983 RMK A01 T03330160  RH  036%=      5-min Rain = 0
KPG1 142340Z 35009KT 33/16 A2983 RMK A01 T03320161  RH  036%=      5-min Rain = 0
KPG1 142341Z 36009KT 33/16 A2983 RMK A01 T03320160  RH  036%=      5-min Rain = 0
KPG1 142342Z 00008KT 33/16 A2983 RMK A01 T03320161  RH  036%=      5-min Rain = 0
KPG1 142343Z 35010KT 33/16 A2983 RMK A01 T03310162  RH  036%=      5-min Rain = 0
KPG1 142344Z 36010KT 33/16 A2983 RMK A01 T03300163  RH  037%=      5-min Rain = 0
KPG1 142345Z 36010KT 33/16 A2983 RMK A01 T03290164  RH  037%=      5-min Rain = 0
KPG1 142346Z 36009KT 33/16 A2983 RMK A01 T03280164  RH  037%=      5-min Rain = 0
KPG1 142347Z 00008KT 33/16 A2983 RMK A01 T03270164  RH  038%=      5-min Rain = 0
KPG1 142348Z 01008KT 33/16 A2983 RMK A01 T03260164  RH  038%=      5-min Rain = 0
KPG1 142349Z 01006KT 33/16 A2983 RMK A01 T03260164  RH  038%=      5-min Rain = 0
KPG1 142350Z 02006KT 33/16 A2983 RMK A01 T03260163  RH  038%=      5-min Rain = 0
KPG1 142351Z 36006KT 33/16 A2982 RMK A01 T03260163  RH  038%=      5-min Rain = 0
KPG1 142352Z 01004KT 33/16 A2982 RMK A01 T03260164  RH  038%=      5-min Rain = 0
KPG1 142353Z 01006KT 33/16 A2982 RMK A01 T03260163  RH  038%=      5-min Rain = 0
KPG1 142354Z 02004KT 33/16 A2982 RMK A01 T03260163  RH  038%=      5-min Rain = 0
KPG1 142355Z 02003KT 33/16 A2982 RMK A01 T03260163  RH  038%=      5-min Rain = 0
KPG1 142356Z 05003KT 33/16 A2982 RMK A01 T03270163  RH  037%=      5-min Rain = 0
KPG1 142357Z 04008G13KT 33/16 A2982 RMK A01 T03270163  RH  037%=      5-min Rain = 0
KPG1 142358Z 10013KT 33/16 A2982 RMK A01 T03270164  RH  038%=      5-min Rain = 0
KPG1 142359Z 10013KT 32/16 A2982 RMK A01 T03240164  RH  038%=      5-min Rain = 0
KPG1 150000Z 09011KT 32/17 A2982 RMK A01 T03200165  RH  039%=      5-min Rain = 0
KPG1 150001Z 08010KT 32/17 A2982 RMK A01 T03190166  RH  040%=      5-min Rain = 0
KPG1 150002Z 07011KT 32/17 A2982 RMK A01 T03180166  RH  040%=      5-min Rain = 0
KPG1 150003Z 08007KT 32/17 A2982 RMK A01 T03190166  RH  040%=      5-min Rain = 0
KPG1 150004Z 05008KT 32/17 A2982 RMK A01 T03200166  RH  040%=      5-min Rain = 0
KPG1 150005Z 07005KT 32/16 A2982 RMK A01 T03210164  RH  039%=      5-min Rain = 0
KPG1 150006Z 07003KT 32/16 A2982 RMK A01 T03210164  RH  039%=      5-min Rain = 0
KPG1 150007Z 04003KT 32/16 A2982 RMK A01 T03210164  RH  039%=      5-min Rain = 0
KPG1 150008Z 07004KT 32/16 A2982 RMK A01 T03210164  RH  039%=      5-min Rain = 0
KPG1 150009Z 07007KT 32/16 A2983 RMK A01 T03220163  RH  039%=      5-min Rain = 0
KPG1 150010Z 08005KT 32/16 A2983 RMK A01 T03230163  RH  038%=      5-min Rain = 0
KPG1 150011Z 08005KT 32/16 A2983 RMK A01 T03230163  RH  038%=      5-min Rain = 0
KPG1 150012Z 06005KT 32/16 A2983 RMK A01 T03240163  RH  038%=      5-min Rain = 0
KPG1 150013Z 06007KT 33/16 A2983 RMK A01 T03250163  RH  038%=      5-min Rain = 0
KPG1 150014Z 08007KT 33/16 A2983 RMK A01 T03250163  RH  038%=      5-min Rain = 0
KPG1 150015Z 08010KT 33/17 A2983 RMK A01 T03250166  RH  039%=      5-min Rain = 0
KPG1 150016Z 09009KT 32/17 A2983 RMK A01 T03240168  RH  039%=      5-min Rain = 0
KPG1 150017Z 08009KT 32/17 A2983 RMK A01 T03230169  RH  040%=      5-min Rain = 0
KPG1 150018Z 08009KT 32/17 A2983 RMK A01 T03220167  RH  039%=      5-min Rain = 0
KPG1 150019Z 08008KT 32/17 A2983 RMK A01 T03200166  RH  040%=      5-min Rain = 0
KPG1 150020Z 08007KT 32/17 A2983 RMK A01 T03190167  RH  040%=      5-min Rain = 0
KPG1 150021Z 07007KT 32/17 A2983 RMK A01 T03180167  RH  040%=      5-min Rain = 0
KPG1 150022Z 06007KT 32/17 A2983 RMK A01 T03180165  RH  040%=      5-min Rain = 0
KPG1 150023Z 05007KT 32/17 A2983 RMK A01 T03170165  RH  040%=      5-min Rain = 0
KPG1 150024Z 04008KT 32/16 A2983 RMK A01 T03180164  RH  040%=      5-min Rain = 0
KPG1 150025Z 04008KT 32/16 A2983 RMK A01 T03180163  RH  039%=      5-min Rain = 0
KPG1 150026Z 03007KT 32/16 A2983 RMK A01 T03180161  RH  039%=      5-min Rain = 0
KPG1 150027Z 03008KT 32/16 A2983 RMK A01 T03180162  RH  039%=      5-min Rain = 0
KPG1 150028Z 04007KT 32/16 A2983 RMK A01 T03180161  RH  039%=      5-min Rain = 0
KPG1 150029Z 03007KT 32/16 A2983 RMK A01 T03180161  RH  039%=      5-min Rain = 0
KPG1 150030Z 03007KT 32/16 A2983 RMK A01 T03180161  RH  039%=      5-min Rain = 0
KPG1 150031Z 04007KT 32/16 A2983 RMK A01 T03180162  RH  039%=      5-min Rain = 0
KPG1 150032Z 05006KT 32/16 A2983 RMK A01 T03180161  RH  039%=      5-min Rain = 0
KPG1 150033Z 03005KT 32/16 A2983 RMK A01 T03180162  RH  039%=      5-min Rain = 0
KPG1 150034Z 05006KT 32/16 A2983 RMK A01 T03180162  RH  039%=      5-min Rain = 0
KPG1 150035Z 05006KT 32/16 A2983 RMK A01 T03180161  RH  039%=      5-min Rain = 0
KPG1 150036Z 03007KT 32/16 A2983 RMK A01 T03180161  RH  039%=      5-min Rain = 0
KPG1 150037Z 03008KT 32/16 A2983 RMK A01 T03180163  RH  039%=      5-min Rain = 0
KPG1 150038Z 04007KT 32/16 A2983 RMK A01 T03180164  RH  040%=      5-min Rain = 0
KPG1 150039Z 04008KT 32/16 A2984 RMK A01 T03180164  RH  040%=      5-min Rain = 0
KPG1 150040Z 04008KT 32/16 A2984 RMK A01 T03170163  RH  040%=      5-min Rain = 0
KPG1 150041Z 04008KT 32/16 A2984 RMK A01 T03170163  RH  040%=      5-min Rain = 0
KPG1 150042Z 04007KT 32/16 A2984 RMK A01 T03180164  RH  040%=      5-min Rain = 0
KPG1 150043Z 04007KT 32/16 A2983 RMK A01 T03170163  RH  040%=      5-min Rain = 0
KPG1 150044Z 03006KT 32/16 A2983 RMK A01 T03170163  RH  040%=      5-min Rain = 0
KPG1 150045Z 03007KT 32/16 A2983 RMK A01 T03170163  RH  040%=      5-min Rain = 0
KPG1 150046Z 03007KT 32/16 A2983 RMK A01 T03170163  RH  039%=      5-min Rain = 0
KPG1 150047Z 03007KT 32/16 A2983 RMK A01 T03170163  RH  040%=      5-min Rain = 0
KPG1 150048Z 02009KT 32/16 A2983 RMK A01 T03170163  RH  040%=      5-min Rain = 0
KPG1 150049Z 02008KT 32/16 A2983 RMK A01 T03170164  RH  040%=      5-min Rain = 0
KPG1 150050Z 02007KT 32/17 A2983 RMK A01 T03170165  RH  040%=      5-min Rain = 0
KPG1 150051Z 02008KT 32/17 A2983 RMK A01 T03170165  RH  040%=      5-min Rain = 0
KPG1 150052Z 03008KT 32/17 A2983 RMK A01 T03170166  RH  040%=      5-min Rain = 0
KPG1 150053Z 01007KT 32/17 A2983 RMK A01 T03170166  RH  041%=      5-min Rain = 0
KPG1 150054Z 03008KT 32/17 A2984 RMK A01 T03170167  RH  041%=      5-min Rain = 0
KPG1 150055Z 03008KT 32/17 A2984 RMK A01 T03160167  RH  041%=      5-min Rain = 0
KPG1 150056Z 03009KT 32/17 A2984 RMK A01 T03170167  RH  041%=      5-min Rain = 0
KPG1 150057Z 03008KT 32/17 A2984 RMK A01 T03160167  RH  041%=      5-min Rain = 0
KPG1 150058Z 03007KT 32/17 A2984 RMK A01 T03160168  RH  041%=      5-min Rain = 0
KPG1 150059Z 03008KT 32/17 A2984 RMK A01 T03160167  RH  041%=      5-min Rain = 0
KPG1 150100Z 02008KT 32/17 A2984 RMK A01 T03170167  RH  041%=      5-min Rain = 0
KPG1 150101Z 02008KT 32/17 A2984 RMK A01 T03160166  RH  041%=      5-min Rain = 0
KPG1 150102Z 03008KT 32/17 A2984 RMK A01 T03170167  RH  041%=      5-min Rain = 0
KPG1 150103Z 03007KT 32/17 A2984 RMK A01 T03160167  RH  041%=      5-min Rain = 0
KPG1 150104Z 03008KT 32/17 A2984 RMK A01 T03160166  RH  041%=      5-min Rain = 0
KPG1 150105Z 03008KT 32/17 A2984 RMK A01 T03160166  RH  040%=      5-min Rain = 0
KPG1 150106Z 03008KT 32/17 A2984 RMK A01 T03160165  RH  040%=      5-min Rain = 0
KPG1 150107Z 03007KT 32/17 A2984 RMK A01 T03160165  RH  040%=      5-min Rain = 0
KPG1 150108Z 03008KT 32/17 A2984 RMK A01 T03170165  RH  040%=      5-min Rain = 0
KPG1 150109Z 03008KT 32/17 A2984 RMK A01 T03160165  RH  040%=      5-min Rain = 0
KPG1 150110Z 03008KT 32/17 A2984 RMK A01 T03160166  RH  040%=      5-min Rain = 0
KPG1 150111Z 01008KT 32/17 A2984 RMK A01 T03170165  RH  040%=      5-min Rain = 0
KPG1 150112Z 00008KT 32/16 A2984 RMK A01 T03160163  RH  040%=      5-min Rain = 0
KPG1 150113Z 01007KT 32/16 A2984 RMK A01 T03160164  RH  040%=      5-min Rain = 0
KPG1 150114Z 00007KT 32/17 A2984 RMK A01 T03170165  RH  040%=      5-min Rain = 0
KPG1 150115Z 01007KT 32/17 A2984 RMK A01 T03170165  RH  040%=      5-min Rain = 0
KPG1 150116Z 01007KT 32/17 A2984 RMK A01 T03170165  RH  040%=      5-min Rain = 0
KPG1 150117Z 01007KT 32/17 A2984 RMK A01 T03170165  RH  040%=      5-min Rain = 0
KPG1 150118Z 01006KT 32/17 A2984 RMK A01 T03170165  RH  040%=      5-min Rain = 0
KPG1 150119Z 00008KT 32/17 A2984 RMK A01 T03170166  RH  040%=      5-min Rain = 0
KPG1 150120Z 36008KT 32/17 A2984 RMK A01 T03170167  RH  040%=      5-min Rain = 0
KPG1 150121Z 00008KT 32/17 A2984 RMK A01 T03170167  RH  041%=      5-min Rain = 0
KPG1 150122Z 36008KT 32/17 A2984 RMK A01 T03170168  RH  041%=      5-min Rain = 0
KPG1 150123Z 00007KT 32/17 A2984 RMK A01 T03160169  RH  041%=      5-min Rain = 0
KPG1 150124Z 00008KT 32/17 A2984 RMK A01 T03160168  RH  041%=      5-min Rain = 0
KPG1 150125Z 36009KT 32/17 A2984 RMK A01 T03160168  RH  041%=      5-min Rain = 0
KPG1 150126Z 36010KT 32/17 A2984 RMK A01 T03150168  RH  041%=      5-min Rain = 0
KPG1 150127Z 35009KT 32/17 A2984 RMK A01 T03150167  RH  041%=      5-min Rain = 0
KPG1 150128Z 35008KT 32/17 A2984 RMK A01 T03150167  RH  041%=      5-min Rain = 0
KPG1 150129Z 35009KT 32/17 A2984 RMK A01 T03150167  RH  041%=      5-min Rain = 0
KPG1 150130Z 35009KT 32/17 A2984 RMK A01 T03150167  RH  041%=      5-min Rain = 0
KPG1 150131Z 36009KT 32/17 A2984 RMK A01 T03150166  RH  041%=      5-min Rain = 0
KPG1 150132Z 01008KT 32/17 A2984 RMK A01 T03150166  RH  041%=      5-min Rain = 0
KPG1 150133Z 01007KT 32/17 A2984 RMK A01 T03150167  RH  041%=      5-min Rain = 0
KPG1 150134Z 01007KT 32/17 A2984 RMK A01 T03150167  RH  041%=      5-min Rain = 0
KPG1 150135Z 36008KT 32/17 A2984 RMK A01 T03150167  RH  041%=      5-min Rain = 0
KPG1 150136Z 35008KT 32/17 A2985 RMK A01 T03150166  RH  041%=      5-min Rain = 0
KPG1 150137Z 35006KT 32/17 A2985 RMK A01 T03150165  RH  041%=      5-min Rain = 0
KPG1 150138Z 36006KT 32/17 A2985 RMK A01 T03150165  RH  041%=      5-min Rain = 0
KPG1 150139Z 00005KT 32/17 A2985 RMK A01 T03150165  RH  041%=      5-min Rain = 0
KPG1 150140Z 01007KT 32/17 A2985 RMK A01 T03150165  RH  041%=      5-min Rain = 0
KPG1 150141Z 01006KT 32/17 A2985 RMK A01 T03150165  RH  041%=      5-min Rain = 0
KPG1 150142Z 36008KT 32/17 A2985 RMK A01 T03150165  RH  041%=      5-min Rain = 0
KPG1 150143Z 36006KT 31/16 A2985 RMK A01 T03140163  RH  040%=      5-min Rain = 0
KPG1 150144Z 02005KT 32/16 A2985 RMK A01 T03150163  RH  040%=      5-min Rain = 0
KPG1 150145Z 02006KT 32/16 A2985 RMK A01 T03150164  RH  040%=      5-min Rain = 0
KPG1 150146Z 36008KT 32/16 A2985 RMK A01 T03150164  RH  040%=      5-min Rain = 0
KPG1 150147Z 36008KT 32/16 A2985 RMK A01 T03150163  RH  040%=      5-min Rain = 0
KPG1 150148Z 35007KT 32/16 A2985 RMK A01 T03150163  RH  040%=      5-min Rain = 0
KPG1 150149Z 01007KT 32/16 A2985 RMK A01 T03150163  RH  040%=      5-min Rain = 0
KPG1 150150Z 01007KT 32/16 A2985 RMK A01 T03150163  RH  040%=      5-min Rain = 0
KPG1 150151Z 02007KT 32/16 A2985 RMK A01 T03150164  RH  040%=      5-min Rain = 0
KPG1 150152Z 02007KT 32/16 A2985 RMK A01 T03150163  RH  040%=      5-min Rain = 0
KPG1 150153Z 02008KT 32/16 A2985 RMK A01 T03150163  RH  040%=      5-min Rain = 0
KPG1 150154Z 02008KT 32/16 A2985 RMK A01 T03150163  RH  040%=      5-min Rain = 0
KPG1 150155Z 02008KT 32/16 A2985 RMK A01 T03150163  RH  040%=      5-min Rain = 0
KPG1 150156Z 02007KT 32/16 A2985 RMK A01 T03150163  RH  040%=      5-min Rain = 0
KPG1 150157Z 02005KT 31/16 A2985 RMK A01 T03140163  RH  040%=      5-min Rain = 0
KPG1 150158Z 01006KT 31/16 A2985 RMK A01 T03140163  RH  040%=      5-min Rain = 0
KPG1 150159Z 01005KT 31/16 A2985 RMK A01 T03140163  RH  040%=      5-min Rain = 0
KPG1 150200Z 36006KT 31/16 A2986 RMK A01 T03140163  RH  040%=      5-min Rain = 0
KPG1 150201Z 36005KT 31/16 A2986 RMK A01 T03140163  RH  040%=      5-min Rain = 0
KPG1 150202Z 35003KT 31/16 A2986 RMK A01 T03140163  RH  040%=      5-min Rain = 0
KPG1 150203Z 33002KT 31/16 A2986 RMK A01 T03140163  RH  040%=      5-min Rain = 0
KPG1 150204Z 27002KT 31/17 A2986 RMK A01 T03140166  RH  041%=      5-min Rain = 0
KPG1 150205Z 23005KT 31/17 A2986 RMK A01 T03140167  RH  041%=      5-min Rain = 0
KPG1 150206Z 23005KT 31/17 A2986 RMK A01 T03140169  RH  042%=      5-min Rain = 0
KPG1 150207Z 21006KT 31/17 A2986 RMK A01 T03130171  RH  043%=      5-min Rain = 0
KPG1 150208Z 22005KT 31/17 A2986 RMK A01 T03130170  RH  042%=      5-min Rain = 0
KPG1 150209Z 23005KT 31/17 A2986 RMK A01 T03130174  RH  043%=      5-min Rain = 0
KPG1 150210Z 24006KT 31/18 A2986 RMK A01 T03130175  RH  044%=      5-min Rain = 0
KPG1 150211Z 26005KT 31/18 A2986 RMK A01 T03110175  RH  044%=      5-min Rain = 0
KPG1 150212Z 25005KT 31/18 A2986 RMK A01 T03100177  RH  045%=      5-min Rain = 0
KPG1 150213Z 24007KT 31/18 A2986 RMK A01 T03090176  RH  045%=      5-min Rain = 0
KPG1 150214Z 23007KT 31/17 A2986 RMK A01 T03080171  RH  044%=      5-min Rain = 0
KPG1 150215Z 24006KT 31/17 A2986 RMK A01 T03070173  RH  045%=      5-min Rain = 0
KPG1 150216Z 23006KT 31/18 A2986 RMK A01 T03060175  RH  045%=      5-min Rain = 0
KPG1 150217Z 21004KT 30/18 A2986 RMK A01 T03040178  RH  047%=      5-min Rain = 0
KPG1 150218Z 20005KT 30/18 A2986 RMK A01 T03040177  RH  047%=      5-min Rain = 0
KPG1 150219Z 19005KT 30/18 A2986 RMK A01 T03040176  RH  046%=      5-min Rain = 0
KPG1 150220Z 19005KT 30/18 A2986 RMK A01 T03030176  RH  047%=      5-min Rain = 0
KPG1 150221Z 20005KT 30/18 A2986 RMK A01 T03030177  RH  047%=      5-min Rain = 0
KPG1 150222Z 20006KT 30/18 A2986 RMK A01 T03020177  RH  047%=      5-min Rain = 0
KPG1 150223Z 20005KT 30/18 A2986 RMK A01 T03010181  RH  048%=      5-min Rain = 0
KPG1 150224Z 21004KT 30/19 A2986 RMK A01 T03010186  RH  050%=      5-min Rain = 0
KPG1 150225Z 24003KT 30/19 A2987 RMK A01 T03000187  RH  051%=      5-min Rain = 0
KPG1 150226Z 27004KT 30/19 A2987 RMK A01 T02980189  RH  052%=      5-min Rain = 0
KPG1 150227Z 26006KT 30/19 A2987 RMK A01 T02960188  RH  052%=      5-min Rain = 0
KPG1 150228Z 26006KT 30/19 A2987 RMK A01 T02950188  RH  052%=      5-min Rain = 0
KPG1 150229Z 27004KT 29/19 A2987 RMK A01 T02940187  RH  052%=      5-min Rain = 0
KPG1 150230Z 28004KT 29/19 A2987 RMK A01 T02930189  RH  053%=      5-min Rain = 0
KPG1 150231Z 27003KT 29/19 A2987 RMK A01 T02920188  RH  053%=      5-min Rain = 0
KPG1 150232Z 29003KT 29/19 A2987 RMK A01 T02920188  RH  054%=      5-min Rain = 0
KPG1 150233Z 29003KT 29/19 A2987 RMK A01 T02910190  RH  054%=      5-min Rain = 0
KPG1 150234Z 31003KT 29/19 A2987 RMK A01 T02910190  RH  055%=      5-min Rain = 0
KPG1 150235Z 32003KT 29/19 A2987 RMK A01 T02910191  RH  055%=      5-min Rain = 0
KPG1 150236Z 31004KT 29/19 A2987 RMK A01 T02900192  RH  055%=      5-min Rain = 0
KPG1 150237Z 29004KT 29/19 A2987 RMK A01 T02890191  RH  055%=      5-min Rain = 0
KPG1 150238Z 30003KT 29/19 A2987 RMK A01 T02900192  RH  055%=      5-min Rain = 0
KPG1 150239Z 28006KT 29/19 A2987 RMK A01 T02890192  RH  056%=      5-min Rain = 0
KPG1 150240Z 27006KT 29/19 A2987 RMK A01 T02890188  RH  054%=      5-min Rain = 0
KPG1 150241Z 28006KT 29/19 A2987 RMK A01 T02890186  RH  054%=      5-min Rain = 0
KPG1 150242Z 29006KT 29/19 A2987 RMK A01 T02890189  RH  055%=      5-min Rain = 0
KPG1 150243Z 28005KT 29/19 A2987 RMK A01 T02880191  RH  056%=      5-min Rain = 0
KPG1 150244Z 28005KT 29/19 A2987 RMK A01 T02870191  RH  056%=      5-min Rain = 0
KPG1 150245Z 29005KT 29/19 A2987 RMK A01 T02870191  RH  056%=      5-min Rain = 0
KPG1 150246Z 29006KT 29/19 A2987 RMK A01 T02870190  RH  056%=      5-min Rain = 0
KPG1 150247Z 29006KT 29/19 A2987 RMK A01 T02870185  RH  054%=      5-min Rain = 0
KPG1 150248Z 28006KT 29/19 A2987 RMK A01 T02880186  RH  054%=      5-min Rain = 0
KPG1 150249Z 28006KT 29/19 A2987 RMK A01 T02890187  RH  054%=      5-min Rain = 0
KPG1 150250Z 28005KT 29/19 A2987 RMK A01 T02890187  RH  054%=      5-min Rain = 0
KPG1 150251Z 28006KT 29/19 A2987 RMK A01 T02890186  RH  054%=      5-min Rain = 0
KPG1 150252Z 29005KT 29/19 A2987 RMK A01 T02890187  RH  054%=      5-min Rain = 0
KPG1 150253Z 28004KT 29/19 A2987 RMK A01 T02890189  RH  055%=      5-min Rain = 0
KPG1 150254Z 28003KT 29/19 A2987 RMK A01 T02890189  RH  055%=      5-min Rain = 0
KPG1 150255Z 30004KT 29/19 A2987 RMK A01 T02890189  RH  055%=      5-min Rain = 0
KPG1 150256Z 29004KT 29/19 A2987 RMK A01 T02890191  RH  055%=      5-min Rain = 0
KPG1 150257Z 29005KT 29/19 A2988 RMK A01 T02880189  RH  055%=      5-min Rain = 0
KPG1 150258Z 29004KT 29/19 A2988 RMK A01 T02880189  RH  055%=      5-min Rain = 0
KPG1 150259Z 28004KT 29/19 A2988 RMK A01 T02880190  RH  056%=      5-min Rain = 0
KPG1 150300Z 26002KT 29/19 A2988 RMK A01 T02880192  RH  056%=      5-min Rain = 0
KPG1 150301Z 25002KT 29/20 A2988 RMK A01 T02870195  RH  057%=      5-min Rain = 0
KPG1 150302Z 21002KT 29/20 A2988 RMK A01 T02870199  RH  059%=      5-min Rain = 0
KPG1 150303Z 17003KT 29/20 A2988 RMK A01 T02850203  RH  061%=      5-min Rain = 0
KPG1 150304Z 17003KT 28/21 A2988 RMK A01 T02830205  RH  063%=      5-min Rain = 0
KPG1 150305Z 15003KT 28/21 A2988 RMK A01 T02810207  RH  064%=      5-min Rain = 0
KPG1 150306Z 14002KT 28/21 A2988 RMK A01 T02800207  RH  064%=      5-min Rain = 0
KPG1 150307Z 17002KT 28/21 A2988 RMK A01 T02790210  RH  066%=      5-min Rain = 0
KPG1 150308Z 18002KT 28/21 A2988 RMK A01 T02790213  RH  067%=      5-min Rain = 0
KPG1 150309Z 18002KT 28/21 A2988 RMK A01 T02780212  RH  067%=      5-min Rain = 0
KPG1 150310Z 20002KT 28/20 A2988 RMK A01 T02770195  RH  061%=      5-min Rain = 0
KPG1 150311Z 22002KT 28/20 A2988 RMK A01 T02790195  RH  060%=      5-min Rain = 0
KPG1 150312Z 17002KT 28/20 A2988 RMK A01 T02810199  RH  061%=      5-min Rain = 0
KPG1 150313Z 18001KT 28/21 A2988 RMK A01 T02810207  RH  064%=      5-min Rain = 0
KPG1 150314Z 19003KT 28/20 A2988 RMK A01 T02810197  RH  060%=      5-min Rain = 0
KPG1 150315Z 20002KT 28/19 A2988 RMK A01 T02820190  RH  058%=      5-min Rain = 0
KPG1 150316Z 17002KT 28/19 A2988 RMK A01 T02830193  RH  058%=      5-min Rain = 0
KPG1 150317Z 16002KT 28/20 A2988 RMK A01 T02830199  RH  060%=      5-min Rain = 0
KPG1 150318Z 12002KT 28/20 A2988 RMK A01 T02830201  RH  061%=      5-min Rain = 0
KPG1 150319Z 08005KT 28/20 A2989 RMK A01 T02820203  RH  062%=      5-min Rain = 0
KPG1 150320Z 07011KT 28/20 A2989 RMK A01 T02810200  RH  061%=      5-min Rain = 0
KPG1 150321Z 07010KT 28/19 A2989 RMK A01 T02810193  RH  059%=      5-min Rain = 0
KPG1 150322Z 07007KT 28/19 A2989 RMK A01 T02800189  RH  058%=      5-min Rain = 0
KPG1 150323Z 05005KT 28/19 A2989 RMK A01 T02790190  RH  058%=      5-min Rain = 0
KPG1 150324Z 06008KT 28/19 A2989 RMK A01 T02790191  RH  059%=      5-min Rain = 0
KPG1 150325Z 08010KT 28/19 A2989 RMK A01 T02780190  RH  059%=      5-min Rain = 0
KPG1 150326Z 11009KT 28/19 A2989 RMK A01 T02790187  RH  058%=      5-min Rain = 0
KPG1 150327Z 09006KT 28/19 A2989 RMK A01 T02800187  RH  057%=      5-min Rain = 0
KPG1 150328Z 09006KT 28/19 A2989 RMK A01 T02810188  RH  057%=      5-min Rain = 0
KPG1 150329Z 09006KT 28/19 A2989 RMK A01 T02810188  RH  057%=      5-min Rain = 0
KPG1 150330Z 11006KT 28/19 A2989 RMK A01 T02800188  RH  057%=      5-min Rain = 0
KPG1 150331Z 10004KT 28/19 A2989 RMK A01 T02810189  RH  057%=      5-min Rain = 0
KPG1 150332Z 10002KT 28/19 A2989 RMK A01 T02800189  RH  058%=      5-min Rain = 0
KPG1 150333Z 05003KT 28/19 A2989 RMK A01 T02800189  RH  058%=      5-min Rain = 0
KPG1 150334Z 06010G19KT 28/19 A2989 RMK A01 T02800189  RH  058%=      5-min Rain = 0
KPG1 150335Z 07018KT 27/19 A2989 RMK A01 T02740190  RH  060%=      5-min Rain = 0
KPG1 150336Z 09013KT 27/19 A2989 RMK A01 T02660190  RH  063%=      5-min Rain = 0
KPG1 150337Z 10010KT 26/19 A2989 RMK A01 T02640189  RH  063%=      5-min Rain = 0
KPG1 150338Z 11010KT 27/19 A2989 RMK A01 T02660187  RH  062%=      5-min Rain = 0
KPG1 150339Z 10010KT 27/19 A2989 RMK A01 T02680188  RH  062%=      5-min Rain = 0
KPG1 150340Z 10010KT 27/19 A2989 RMK A01 T02680189  RH  062%=      5-min Rain = 0
KPG1 150341Z 10007KT 27/19 A2989 RMK A01 T02690188  RH  061%=      5-min Rain = 0
KPG1 150342Z 11008KT 27/19 A2989 RMK A01 T02700185  RH  060%=      5-min Rain = 0
KPG1 150343Z 13007KT 27/18 A2989 RMK A01 T02730184  RH  058%=      5-min Rain = 0
KPG1 150344Z 12006KT 28/18 A2989 RMK A01 T02750183  RH  057%=      5-min Rain = 0
KPG1 150345Z 11003KT 28/18 A299 RMK A01 T02770183  RH  056%=      5-min Rain = 0
KPG1 150346Z 10002KT 28/18 A299 RMK A01 T02780182  RH  056%=      5-min Rain = 0
KPG1 150347Z 04002KT 28/18 A299 RMK A01 T02790182  RH  055%=      5-min Rain = 0
KPG1 150348Z 06005KT 28/19 A299 RMK A01 T02790186  RH  057%=      5-min Rain = 0
KPG1 150349Z 08005KT 28/19 A299 RMK A01 T02770187  RH  058%=      5-min Rain = 0
KPG1 150350Z 08005KT 27/19 A299 RMK A01 T02740187  RH  059%=      5-min Rain = 0
KPG1 150351Z 08007KT 27/19 A299 RMK A01 T02720185  RH  059%=      5-min Rain = 0
KPG1 150352Z 08008KT 27/18 A299 RMK A01 T02730182  RH  057%=      5-min Rain = 0
KPG1 150353Z 09010KT 28/18 A299 RMK A01 T02750182  RH  057%=      5-min Rain = 0
KPG1 150354Z 09009KT 28/18 A299 RMK A01 T02770182  RH  056%=      5-min Rain = 0
KPG1 150355Z 09008KT 28/18 A299 RMK A01 T02770181  RH  056%=      5-min Rain = 0
KPG1 150356Z 09008KT 28/18 A299 RMK A01 T02780181  RH  056%=      5-min Rain = 0
KPG1 150357Z 09007KT 28/18 A299 RMK A01 T02790181  RH  055%=      5-min Rain = 0
KPG1 150358Z 08006KT 28/18 A299 RMK A01 T02790181  RH  055%=      5-min Rain = 0
KPG1 150359Z 06007KT 28/18 A299 RMK A01 T02800179  RH  054%=      5-min Rain = 0
KPG1 150400Z 02010KT 28/18 A2991 RMK A01 T02810182  RH  055%=      5-min Rain = 0
KPG1 150401Z 02013KT 28/19 A2991 RMK A01 T02760186  RH  058%=      5-min Rain = 0
KPG1 150402Z 03013KT 27/19 A299 RMK A01 T02660186  RH  061%=      5-min Rain = 0
KPG1 150403Z 02011KT 26/19 A2991 RMK A01 T02600186  RH  064%=      5-min Rain = 0
KPG1 150404Z 02011KT 26/19 A2991 RMK A01 T02560186  RH  065%=      5-min Rain = 0
KPG1 150405Z 02010KT 25/19 A2991 RMK A01 T02540186  RH  066%=      5-min Rain = 0
KPG1 150406Z 01009KT 25/19 A299 RMK A01 T02530187  RH  067%=      5-min Rain = 0
KPG1 150407Z 01009KT 25/19 A299 RMK A01 T02520187  RH  067%=      5-min Rain = 0
KPG1 150408Z 36008KT 25/19 A299 RMK A01 T02510187  RH  067%=      5-min Rain = 0
KPG1 150409Z 36009KT 25/19 A299 RMK A01 T02510187  RH  067%=      5-min Rain = 0
KPG1 150410Z 36009KT 25/19 A299 RMK A01 T02510187  RH  067%=      5-min Rain = 0
KPG1 150411Z 35009KT 25/19 A299 RMK A01 T02510186  RH  067%=      5-min Rain = 0
KPG1 150412Z 35009KT 25/19 A299 RMK A01 T02520187  RH  067%=      5-min Rain = 0
KPG1 150413Z 35009KT 25/19 A299 RMK A01 T02520186  RH  067%=      5-min Rain = 0
KPG1 150414Z 35009KT 25/19 A299 RMK A01 T02520186  RH  067%=      5-min Rain = 0
KPG1 150415Z 35013KT 25/19 A299 RMK A01 T02520187  RH  067%=      5-min Rain = 0
KPG1 150416Z 01012KT 25/19 A299 RMK A01 T02520187  RH  067%=      5-min Rain = 0
KPG1 150417Z 03012KT 25/19 A2991 RMK A01 T02540188  RH  067%=      5-min Rain = 0
KPG1 150418Z 03014KT 25/19 A2991 RMK A01 T02540188  RH  067%=      5-min Rain = 0
KPG1 150419Z 04012KT 25/19 A2991 RMK A01 T02540188  RH  067%=      5-min Rain = 0
KPG1 150420Z 03010KT 25/19 A2991 RMK A01 T02540187  RH  067%=      5-min Rain = 0
KPG1 150421Z 03009KT 25/19 A2991 RMK A01 T02540187  RH  066%=      5-min Rain = 0
KPG1 150422Z 02008KT 25/19 A2991 RMK A01 T02540187  RH  066%=      5-min Rain = 0
KPG1 150423Z 03006KT 25/19 A2991 RMK A01 T02530187  RH  067%=      5-min Rain = 0
KPG1 150424Z 02006KT 25/19 A2991 RMK A01 T02530187  RH  067%=      5-min Rain = 0
KPG1 150425Z 01008KT 25/19 A2991 RMK A01 T02530187  RH  067%=      5-min Rain = 0
KPG1 150426Z 02008KT 25/19 A2991 RMK A01 T02530186  RH  067%=      5-min Rain = 0
KPG1 150427Z 03009KT 25/19 A2991 RMK A01 T02530186  RH  067%=      5-min Rain = 0
KPG1 150428Z 03009KT 25/19 A2991 RMK A01 T02530186  RH  066%=      5-min Rain = 0
KPG1 150429Z 03010KT 25/19 A2991 RMK A01 T02530186  RH  066%=      5-min Rain = 0
KPG1 150430Z 02009KT 25/19 A2991 RMK A01 T02540186  RH  066%=      5-min Rain = 0
KPG1 150431Z 03010KT 25/19 A299 RMK A01 T02540186  RH  066%=      5-min Rain = 0
KPG1 150432Z 03009KT 25/19 A299 RMK A01 T02540186  RH  066%=      5-min Rain = 0
KPG1 150433Z 03010KT 25/19 A299 RMK A01 T02540185  RH  066%=      5-min Rain = 0
KPG1 150434Z 02009KT 25/19 A299 RMK A01 T02540185  RH  066%=      5-min Rain = 0
KPG1 150435Z 03009KT 25/19 A299 RMK A01 T02540185  RH  066%=      5-min Rain = 0
KPG1 150436Z 03009KT 25/19 A299 RMK A01 T02540185  RH  065%=      5-min Rain = 0
KPG1 150437Z 03008KT 26/19 A299 RMK A01 T02550185  RH  065%=      5-min Rain = 0
KPG1 150438Z 02009KT 26/19 A299 RMK A01 T02550185  RH  065%=      5-min Rain = 0
KPG1 150439Z 03010KT 26/18 A299 RMK A01 T02550184  RH  065%=      5-min Rain = 0
KPG1 150440Z 03009KT 26/18 A299 RMK A01 T02550184  RH  065%=      5-min Rain = 0
KPG1 150441Z 03009KT 26/19 A299 RMK A01 T02550185  RH  065%=      5-min Rain = 0
KPG1 150442Z 03009KT 26/19 A299 RMK A01 T02550185  RH  065%=      5-min Rain = 0
KPG1 150443Z 03011KT 26/19 A299 RMK A01 T02550185  RH  065%=      5-min Rain = 0
KPG1 150444Z 03008KT 26/19 A299 RMK A01 T02560185  RH  065%=      5-min Rain = 0
KPG1 150445Z 02009KT 26/19 A299 RMK A01 T02560185  RH  065%=      5-min Rain = 0
KPG1 150446Z 02010KT 26/18 A299 RMK A01 T02560184  RH  064%=      5-min Rain = 0
KPG1 150447Z 01009KT 26/18 A299 RMK A01 T02560183  RH  064%=      5-min Rain = 0
KPG1 150448Z 01009KT 26/18 A299 RMK A01 T02560182  RH  064%=      5-min Rain = 0
KPG1 150449Z 00009KT 26/18 A299 RMK A01 T02560182  RH  063%=      5-min Rain = 0
KPG1 150450Z 01009KT 26/18 A299 RMK A01 T02560181  RH  063%=      5-min Rain = 0
KPG1 150451Z 02008KT 26/18 A299 RMK A01 T02570181  RH  063%=      5-min Rain = 0
KPG1 150452Z 02009KT 26/18 A299 RMK A01 T02570181  RH  063%=      5-min Rain = 0
KPG1 150453Z 03008KT 26/18 A299 RMK A01 T02570181  RH  063%=      5-min Rain = 0
KPG1 150454Z 03009KT 26/18 A299 RMK A01 T02570180  RH  062%=      5-min Rain = 0
KPG1 150455Z 02008KT 26/18 A299 RMK A01 T02580179  RH  062%=      5-min Rain = 0
KPG1 150456Z 02008KT 26/18 A299 RMK A01 T02580179  RH  061%=      5-min Rain = 0
KPG1 150457Z 02008KT 26/18 A299 RMK A01 T02590178  RH  061%=      5-min Rain = 0
KPG1 150458Z 01009KT 26/18 A299 RMK A01 T02590178  RH  061%=      5-min Rain = 0
KPG1 150459Z 02008KT 26/18 A299 RMK A01 T02590177  RH  060%=      5-min Rain = 0

Page generated in 0.0729 seconds.